<?xml version="1.0" encoding="UTF-8" standalone="no" ?>
<gpx xmlns="http://www.topografix.com/GPX/1/1" xmlns:xsi="http://www.w3.org/2001/XMLSchema-instance" xsi:schemaLocation="http://www.topografix.com/GPX/1/1 http://www.topografix.com/GPX/1/1/gpx.xsd" version="1.1" creator="VisuGPX - https://www.visugpx.com">
  <metadata>
    <name>Tour des Coulmes (Rando organisé du 19/06/2011)</name>
    <desc><![CDATA[Magnifique tour des Coulmes lors de la "rando des coulmes". Les 35 km demandent un peu d'endurance. Mais c'est très faisable.]]></desc>
  </metadata>
  <trk>
    <name><![CDATA[Tour des Coulmes]]></name>
    <cmt><![CDATA[19 juin 2011 09:45:42]]></cmt>
    <trkseg>
      <trkpt lat="45.11632" lon="5.40448">
        <ele>1001</ele>
        <time>2011-06-19T07:45:43Z</time>
      </trkpt>
      <trkpt lat="45.11631" lon="5.40435">
        <ele>1002</ele>
        <time>2011-06-19T07:46:53Z</time>
      </trkpt>
      <trkpt lat="45.11633" lon="5.40438">
        <ele>1002</ele>
        <time>2011-06-19T07:47:09Z</time>
      </trkpt>
      <trkpt lat="45.11631" lon="5.40364">
        <ele>1008</ele>
        <time>2011-06-19T07:47:21Z</time>
      </trkpt>
      <trkpt lat="45.11634" lon="5.40185">
        <ele>1011</ele>
        <time>2011-06-19T07:47:55Z</time>
      </trkpt>
      <trkpt lat="45.1156" lon="5.40023">
        <ele>1013</ele>
        <time>2011-06-19T07:48:25Z</time>
      </trkpt>
      <trkpt lat="45.11552" lon="5.39993">
        <ele>1011</ele>
        <time>2011-06-19T07:48:30Z</time>
      </trkpt>
      <trkpt lat="45.11392" lon="5.39859">
        <ele>1008</ele>
        <time>2011-06-19T07:49:02Z</time>
      </trkpt>
      <trkpt lat="45.11314" lon="5.39743">
        <ele>1010</ele>
        <time>2011-06-19T07:49:33Z</time>
      </trkpt>
      <trkpt lat="45.11272" lon="5.39691">
        <ele>1011</ele>
        <time>2011-06-19T07:49:50Z</time>
      </trkpt>
      <trkpt lat="45.11256" lon="5.3968">
        <ele>1013</ele>
        <time>2011-06-19T07:49:54Z</time>
      </trkpt>
      <trkpt lat="45.11225" lon="5.39669">
        <ele>1013</ele>
        <time>2011-06-19T07:49:59Z</time>
      </trkpt>
      <trkpt lat="45.11141" lon="5.39485">
        <ele>1015</ele>
        <time>2011-06-19T07:50:31Z</time>
      </trkpt>
      <trkpt lat="45.11022" lon="5.39329">
        <ele>1013</ele>
        <time>2011-06-19T07:51:02Z</time>
      </trkpt>
      <trkpt lat="45.10827" lon="5.39155">
        <ele>1011</ele>
        <time>2011-06-19T07:51:34Z</time>
      </trkpt>
      <trkpt lat="45.10774" lon="5.39123">
        <ele>1010</ele>
        <time>2011-06-19T07:51:44Z</time>
      </trkpt>
      <trkpt lat="45.10763" lon="5.39124">
        <ele>1009</ele>
        <time>2011-06-19T07:51:46Z</time>
      </trkpt>
      <trkpt lat="45.10727" lon="5.391">
        <ele>1006</ele>
        <time>2011-06-19T07:51:52Z</time>
      </trkpt>
      <trkpt lat="45.10607" lon="5.38956">
        <ele>989</ele>
        <time>2011-06-19T07:52:23Z</time>
      </trkpt>
      <trkpt lat="45.10505" lon="5.38817">
        <ele>990</ele>
        <time>2011-06-19T07:52:55Z</time>
      </trkpt>
      <trkpt lat="45.10502" lon="5.38787">
        <ele>990</ele>
        <time>2011-06-19T07:52:59Z</time>
      </trkpt>
      <trkpt lat="45.10493" lon="5.38771">
        <ele>990</ele>
        <time>2011-06-19T07:53:02Z</time>
      </trkpt>
      <trkpt lat="45.10382" lon="5.38611">
        <ele>980</ele>
        <time>2011-06-19T07:53:32Z</time>
      </trkpt>
      <trkpt lat="45.10209" lon="5.3852">
        <ele>976</ele>
        <time>2011-06-19T07:54:03Z</time>
      </trkpt>
      <trkpt lat="45.10002" lon="5.38523">
        <ele>966</ele>
        <time>2011-06-19T07:54:33Z</time>
      </trkpt>
      <trkpt lat="45.09848" lon="5.38551">
        <ele>959</ele>
        <time>2011-06-19T07:55:56Z</time>
      </trkpt>
      <trkpt lat="45.09832" lon="5.38542">
        <ele>959</ele>
        <time>2011-06-19T07:56:06Z</time>
      </trkpt>
      <trkpt lat="45.09773" lon="5.3852">
        <ele>955</ele>
        <time>2011-06-19T07:56:19Z</time>
      </trkpt>
      <trkpt lat="45.09768" lon="5.38503">
        <ele>955</ele>
        <time>2011-06-19T07:56:22Z</time>
      </trkpt>
      <trkpt lat="45.09759" lon="5.38456">
        <ele>954</ele>
        <time>2011-06-19T07:56:29Z</time>
      </trkpt>
      <trkpt lat="45.09756" lon="5.38449">
        <ele>953</ele>
        <time>2011-06-19T07:56:51Z</time>
      </trkpt>
      <trkpt lat="45.09737" lon="5.38438">
        <ele>952</ele>
        <time>2011-06-19T07:57:00Z</time>
      </trkpt>
      <trkpt lat="45.09726" lon="5.38439">
        <ele>952</ele>
        <time>2011-06-19T07:57:05Z</time>
      </trkpt>
      <trkpt lat="45.09701" lon="5.38413">
        <ele>953</ele>
        <time>2011-06-19T07:57:13Z</time>
      </trkpt>
      <trkpt lat="45.09693" lon="5.38374">
        <ele>954</ele>
        <time>2011-06-19T07:57:20Z</time>
      </trkpt>
      <trkpt lat="45.09695" lon="5.38365">
        <ele>954</ele>
        <time>2011-06-19T07:57:22Z</time>
      </trkpt>
      <trkpt lat="45.09721" lon="5.3833">
        <ele>955</ele>
        <time>2011-06-19T07:57:30Z</time>
      </trkpt>
      <trkpt lat="45.09819" lon="5.38218">
        <ele>959</ele>
        <time>2011-06-19T07:58:01Z</time>
      </trkpt>
      <trkpt lat="45.09957" lon="5.38084">
        <ele>964</ele>
        <time>2011-06-19T07:58:32Z</time>
      </trkpt>
      <trkpt lat="45.10084" lon="5.37902">
        <ele>965</ele>
        <time>2011-06-19T07:59:03Z</time>
      </trkpt>
      <trkpt lat="45.10091" lon="5.37861">
        <ele>965</ele>
        <time>2011-06-19T07:59:07Z</time>
      </trkpt>
      <trkpt lat="45.10058" lon="5.3778">
        <ele>964</ele>
        <time>2011-06-19T07:59:17Z</time>
      </trkpt>
      <trkpt lat="45.09977" lon="5.3773">
        <ele>964</ele>
        <time>2011-06-19T07:59:35Z</time>
      </trkpt>
      <trkpt lat="45.09967" lon="5.37727">
        <ele>963</ele>
        <time>2011-06-19T07:59:41Z</time>
      </trkpt>
      <trkpt lat="45.0995" lon="5.37707">
        <ele>961</ele>
        <time>2011-06-19T07:59:49Z</time>
      </trkpt>
      <trkpt lat="45.09927" lon="5.37615">
        <ele>957</ele>
        <time>2011-06-19T08:00:12Z</time>
      </trkpt>
      <trkpt lat="45.09917" lon="5.37615">
        <ele>957</ele>
        <time>2011-06-19T08:00:17Z</time>
      </trkpt>
      <trkpt lat="45.09853" lon="5.37635">
        <ele>956</ele>
        <time>2011-06-19T08:00:48Z</time>
      </trkpt>
      <trkpt lat="45.09797" lon="5.37625">
        <ele>960</ele>
        <time>2011-06-19T08:01:19Z</time>
      </trkpt>
      <trkpt lat="45.09731" lon="5.37608">
        <ele>967</ele>
        <time>2011-06-19T08:01:52Z</time>
      </trkpt>
      <trkpt lat="45.09705" lon="5.37607">
        <ele>970</ele>
        <time>2011-06-19T08:02:29Z</time>
      </trkpt>
      <trkpt lat="45.09701" lon="5.37611">
        <ele>970</ele>
        <time>2011-06-19T08:02:32Z</time>
      </trkpt>
      <trkpt lat="45.097" lon="5.37612">
        <ele>972</ele>
        <time>2011-06-19T08:03:01Z</time>
      </trkpt>
      <trkpt lat="45.09693" lon="5.3761">
        <ele>974</ele>
        <time>2011-06-19T08:03:13Z</time>
      </trkpt>
      <trkpt lat="45.09606" lon="5.37538">
        <ele>980</ele>
        <time>2011-06-19T08:03:45Z</time>
      </trkpt>
      <trkpt lat="45.09595" lon="5.37487">
        <ele>982</ele>
        <time>2011-06-19T08:03:55Z</time>
      </trkpt>
      <trkpt lat="45.09574" lon="5.37435">
        <ele>991</ele>
        <time>2011-06-19T08:04:05Z</time>
      </trkpt>
      <trkpt lat="45.09486" lon="5.37373">
        <ele>994</ele>
        <time>2011-06-19T08:04:23Z</time>
      </trkpt>
      <trkpt lat="45.09442" lon="5.37382">
        <ele>996</ele>
        <time>2011-06-19T08:04:31Z</time>
      </trkpt>
      <trkpt lat="45.09431" lon="5.37395">
        <ele>996</ele>
        <time>2011-06-19T08:04:37Z</time>
      </trkpt>
      <trkpt lat="45.09422" lon="5.37401">
        <ele>995</ele>
        <time>2011-06-19T08:05:21Z</time>
      </trkpt>
      <trkpt lat="45.09418" lon="5.37417">
        <ele>994</ele>
        <time>2011-06-19T08:05:24Z</time>
      </trkpt>
      <trkpt lat="45.09416" lon="5.37426">
        <ele>994</ele>
        <time>2011-06-19T08:05:26Z</time>
      </trkpt>
      <trkpt lat="45.09413" lon="5.37475">
        <ele>989</ele>
        <time>2011-06-19T08:05:34Z</time>
      </trkpt>
      <trkpt lat="45.09412" lon="5.37483">
        <ele>988</ele>
        <time>2011-06-19T08:05:36Z</time>
      </trkpt>
      <trkpt lat="45.09409" lon="5.3752">
        <ele>986</ele>
        <time>2011-06-19T08:05:41Z</time>
      </trkpt>
      <trkpt lat="45.09405" lon="5.37541">
        <ele>985</ele>
        <time>2011-06-19T08:05:45Z</time>
      </trkpt>
      <trkpt lat="45.09396" lon="5.37594">
        <ele>980</ele>
        <time>2011-06-19T08:05:54Z</time>
      </trkpt>
      <trkpt lat="45.09391" lon="5.37594">
        <ele>980</ele>
        <time>2011-06-19T08:06:17Z</time>
      </trkpt>
      <trkpt lat="45.09386" lon="5.37599">
        <ele>979</ele>
        <time>2011-06-19T08:06:36Z</time>
      </trkpt>
      <trkpt lat="45.09384" lon="5.37606">
        <ele>978</ele>
        <time>2011-06-19T08:06:39Z</time>
      </trkpt>
      <trkpt lat="45.09376" lon="5.37642">
        <ele>976</ele>
        <time>2011-06-19T08:06:51Z</time>
      </trkpt>
      <trkpt lat="45.09373" lon="5.37648">
        <ele>974</ele>
        <time>2011-06-19T08:07:40Z</time>
      </trkpt>
      <trkpt lat="45.0937" lon="5.37643">
        <ele>974</ele>
        <time>2011-06-19T08:07:49Z</time>
      </trkpt>
      <trkpt lat="45.09373" lon="5.37645">
        <ele>972</ele>
        <time>2011-06-19T08:08:46Z</time>
      </trkpt>
      <trkpt lat="45.09368" lon="5.37652">
        <ele>971</ele>
        <time>2011-06-19T08:08:56Z</time>
      </trkpt>
      <trkpt lat="45.09332" lon="5.37738">
        <ele>963</ele>
        <time>2011-06-19T08:09:28Z</time>
      </trkpt>
      <trkpt lat="45.09331" lon="5.37745">
        <ele>963</ele>
        <time>2011-06-19T08:09:36Z</time>
      </trkpt>
      <trkpt lat="45.09328" lon="5.37752">
        <ele>962</ele>
        <time>2011-06-19T08:09:50Z</time>
      </trkpt>
      <trkpt lat="45.09286" lon="5.37833">
        <ele>958</ele>
        <time>2011-06-19T08:10:13Z</time>
      </trkpt>
      <trkpt lat="45.09276" lon="5.37864">
        <ele>948</ele>
        <time>2011-06-19T08:10:19Z</time>
      </trkpt>
      <trkpt lat="45.09269" lon="5.37878">
        <ele>947</ele>
        <time>2011-06-19T08:10:23Z</time>
      </trkpt>
      <trkpt lat="45.0917" lon="5.38021">
        <ele>905</ele>
        <time>2011-06-19T08:10:56Z</time>
      </trkpt>
      <trkpt lat="45.0917" lon="5.38029">
        <ele>905</ele>
        <time>2011-06-19T08:10:58Z</time>
      </trkpt>
      <trkpt lat="45.09177" lon="5.38058">
        <ele>902</ele>
        <time>2011-06-19T08:11:08Z</time>
      </trkpt>
      <trkpt lat="45.09175" lon="5.38251">
        <ele>877</ele>
        <time>2011-06-19T08:11:30Z</time>
      </trkpt>
      <trkpt lat="45.09171" lon="5.38254">
        <ele>877</ele>
        <time>2011-06-19T08:11:32Z</time>
      </trkpt>
      <trkpt lat="45.09162" lon="5.38251">
        <ele>877</ele>
        <time>2011-06-19T08:11:37Z</time>
      </trkpt>
      <trkpt lat="45.0915" lon="5.38255">
        <ele>876</ele>
        <time>2011-06-19T08:11:45Z</time>
      </trkpt>
      <trkpt lat="45.09147" lon="5.38258">
        <ele>876</ele>
        <time>2011-06-19T08:12:01Z</time>
      </trkpt>
      <trkpt lat="45.09142" lon="5.38264">
        <ele>874</ele>
        <time>2011-06-19T08:13:04Z</time>
      </trkpt>
      <trkpt lat="45.09139" lon="5.38272">
        <ele>874</ele>
        <time>2011-06-19T08:13:06Z</time>
      </trkpt>
      <trkpt lat="45.09139" lon="5.38298">
        <ele>874</ele>
        <time>2011-06-19T08:13:12Z</time>
      </trkpt>
      <trkpt lat="45.09136" lon="5.3836">
        <ele>866</ele>
        <time>2011-06-19T08:13:22Z</time>
      </trkpt>
      <trkpt lat="45.09137" lon="5.3839">
        <ele>865</ele>
        <time>2011-06-19T08:13:26Z</time>
      </trkpt>
      <trkpt lat="45.0917" lon="5.3858">
        <ele>860</ele>
        <time>2011-06-19T08:13:56Z</time>
      </trkpt>
      <trkpt lat="45.0919" lon="5.3862">
        <ele>860</ele>
        <time>2011-06-19T08:14:22Z</time>
      </trkpt>
      <trkpt lat="45.09249" lon="5.38681">
        <ele>861</ele>
        <time>2011-06-19T08:14:52Z</time>
      </trkpt>
      <trkpt lat="45.09308" lon="5.38759">
        <ele>862</ele>
        <time>2011-06-19T08:15:25Z</time>
      </trkpt>
      <trkpt lat="45.09362" lon="5.38833">
        <ele>865</ele>
        <time>2011-06-19T08:15:57Z</time>
      </trkpt>
      <trkpt lat="45.09393" lon="5.38874">
        <ele>867</ele>
        <time>2011-06-19T08:16:18Z</time>
      </trkpt>
      <trkpt lat="45.0946" lon="5.38878">
        <ele>871</ele>
        <time>2011-06-19T08:16:51Z</time>
      </trkpt>
      <trkpt lat="45.09511" lon="5.38902">
        <ele>875</ele>
        <time>2011-06-19T08:17:27Z</time>
      </trkpt>
      <trkpt lat="45.09514" lon="5.38903">
        <ele>876</ele>
        <time>2011-06-19T08:17:41Z</time>
      </trkpt>
      <trkpt lat="45.09543" lon="5.38937">
        <ele>881</ele>
        <time>2011-06-19T08:18:14Z</time>
      </trkpt>
      <trkpt lat="45.09588" lon="5.38953">
        <ele>885</ele>
        <time>2011-06-19T08:18:39Z</time>
      </trkpt>
      <trkpt lat="45.09592" lon="5.38958">
        <ele>887</ele>
        <time>2011-06-19T08:19:00Z</time>
      </trkpt>
      <trkpt lat="45.09596" lon="5.38965">
        <ele>889</ele>
        <time>2011-06-19T08:19:19Z</time>
      </trkpt>
      <trkpt lat="45.09585" lon="5.3897">
        <ele>889</ele>
        <time>2011-06-19T08:19:25Z</time>
      </trkpt>
      <trkpt lat="45.09583" lon="5.38971">
        <ele>889</ele>
        <time>2011-06-19T08:19:32Z</time>
      </trkpt>
      <trkpt lat="45.09585" lon="5.38963">
        <ele>891</ele>
        <time>2011-06-19T08:19:49Z</time>
      </trkpt>
      <trkpt lat="45.09588" lon="5.38956">
        <ele>891</ele>
        <time>2011-06-19T08:19:54Z</time>
      </trkpt>
      <trkpt lat="45.09591" lon="5.38961">
        <ele>892</ele>
        <time>2011-06-19T08:19:58Z</time>
      </trkpt>
      <trkpt lat="45.09606" lon="5.38977">
        <ele>892</ele>
        <time>2011-06-19T08:20:04Z</time>
      </trkpt>
      <trkpt lat="45.09628" lon="5.38988">
        <ele>897</ele>
        <time>2011-06-19T08:20:09Z</time>
      </trkpt>
      <trkpt lat="45.09636" lon="5.38992">
        <ele>898</ele>
        <time>2011-06-19T08:20:11Z</time>
      </trkpt>
      <trkpt lat="45.09644" lon="5.39005">
        <ele>898</ele>
        <time>2011-06-19T08:20:15Z</time>
      </trkpt>
      <trkpt lat="45.09645" lon="5.39059">
        <ele>899</ele>
        <time>2011-06-19T08:20:28Z</time>
      </trkpt>
      <trkpt lat="45.09638" lon="5.39168">
        <ele>902</ele>
        <time>2011-06-19T08:21:01Z</time>
      </trkpt>
      <trkpt lat="45.09675" lon="5.39221">
        <ele>903</ele>
        <time>2011-06-19T08:21:16Z</time>
      </trkpt>
      <trkpt lat="45.09682" lon="5.39242">
        <ele>904</ele>
        <time>2011-06-19T08:21:20Z</time>
      </trkpt>
      <trkpt lat="45.09728" lon="5.39391">
        <ele>904</ele>
        <time>2011-06-19T08:21:51Z</time>
      </trkpt>
      <trkpt lat="45.09756" lon="5.39473">
        <ele>902</ele>
        <time>2011-06-19T08:22:18Z</time>
      </trkpt>
      <trkpt lat="45.0975" lon="5.39555">
        <ele>901</ele>
        <time>2011-06-19T08:22:50Z</time>
      </trkpt>
      <trkpt lat="45.09743" lon="5.39582">
        <ele>901</ele>
        <time>2011-06-19T08:23:10Z</time>
      </trkpt>
      <trkpt lat="45.09744" lon="5.39586">
        <ele>902</ele>
        <time>2011-06-19T08:23:22Z</time>
      </trkpt>
      <trkpt lat="45.09743" lon="5.39589">
        <ele>902</ele>
        <time>2011-06-19T08:23:34Z</time>
      </trkpt>
      <trkpt lat="45.0974" lon="5.39603">
        <ele>902</ele>
        <time>2011-06-19T08:23:40Z</time>
      </trkpt>
      <trkpt lat="45.09737" lon="5.39622">
        <ele>904</ele>
        <time>2011-06-19T08:24:16Z</time>
      </trkpt>
      <trkpt lat="45.0973" lon="5.39672">
        <ele>907</ele>
        <time>2011-06-19T08:24:47Z</time>
      </trkpt>
      <trkpt lat="45.09738" lon="5.39713">
        <ele>912</ele>
        <time>2011-06-19T08:25:21Z</time>
      </trkpt>
      <trkpt lat="45.09742" lon="5.39738">
        <ele>916</ele>
        <time>2011-06-19T08:25:54Z</time>
      </trkpt>
      <trkpt lat="45.09742" lon="5.39737">
        <ele>919</ele>
        <time>2011-06-19T08:26:56Z</time>
      </trkpt>
      <trkpt lat="45.09737" lon="5.39737">
        <ele>919</ele>
        <time>2011-06-19T08:26:59Z</time>
      </trkpt>
      <trkpt lat="45.0974" lon="5.39744">
        <ele>919</ele>
        <time>2011-06-19T08:27:13Z</time>
      </trkpt>
      <trkpt lat="45.09764" lon="5.3981">
        <ele>922</ele>
        <time>2011-06-19T08:27:43Z</time>
      </trkpt>
      <trkpt lat="45.09773" lon="5.39864">
        <ele>924</ele>
        <time>2011-06-19T08:28:02Z</time>
      </trkpt>
      <trkpt lat="45.09772" lon="5.3987">
        <ele>925</ele>
        <time>2011-06-19T08:28:33Z</time>
      </trkpt>
      <trkpt lat="45.0977" lon="5.39877">
        <ele>926</ele>
        <time>2011-06-19T08:28:55Z</time>
      </trkpt>
      <trkpt lat="45.09768" lon="5.39986">
        <ele>928</ele>
        <time>2011-06-19T08:29:21Z</time>
      </trkpt>
      <trkpt lat="45.09801" lon="5.40047">
        <ele>930</ele>
        <time>2011-06-19T08:29:44Z</time>
      </trkpt>
      <trkpt lat="45.09867" lon="5.40095">
        <ele>932</ele>
        <time>2011-06-19T08:30:16Z</time>
      </trkpt>
      <trkpt lat="45.09935" lon="5.40144">
        <ele>935</ele>
        <time>2011-06-19T08:30:45Z</time>
      </trkpt>
      <trkpt lat="45.0995" lon="5.40161">
        <ele>938</ele>
        <time>2011-06-19T08:30:50Z</time>
      </trkpt>
      <trkpt lat="45.09967" lon="5.40188">
        <ele>938</ele>
        <time>2011-06-19T08:31:01Z</time>
      </trkpt>
      <trkpt lat="45.0999" lon="5.40263">
        <ele>941</ele>
        <time>2011-06-19T08:31:31Z</time>
      </trkpt>
      <trkpt lat="45.09993" lon="5.40268">
        <ele>942</ele>
        <time>2011-06-19T08:31:36Z</time>
      </trkpt>
      <trkpt lat="45.09989" lon="5.40273">
        <ele>942</ele>
        <time>2011-06-19T08:31:42Z</time>
      </trkpt>
      <trkpt lat="45.09981" lon="5.40299">
        <ele>943</ele>
        <time>2011-06-19T08:31:52Z</time>
      </trkpt>
      <trkpt lat="45.09978" lon="5.40382">
        <ele>947</ele>
        <time>2011-06-19T08:32:21Z</time>
      </trkpt>
      <trkpt lat="45.09927" lon="5.40401">
        <ele>950</ele>
        <time>2011-06-19T08:32:51Z</time>
      </trkpt>
      <trkpt lat="45.09873" lon="5.40416">
        <ele>954</ele>
        <time>2011-06-19T08:33:24Z</time>
      </trkpt>
      <trkpt lat="45.09828" lon="5.40427">
        <ele>958</ele>
        <time>2011-06-19T08:33:57Z</time>
      </trkpt>
      <trkpt lat="45.09789" lon="5.40436">
        <ele>963</ele>
        <time>2011-06-19T08:34:28Z</time>
      </trkpt>
      <trkpt lat="45.09753" lon="5.40439">
        <ele>972</ele>
        <time>2011-06-19T08:35:00Z</time>
      </trkpt>
      <trkpt lat="45.0971" lon="5.40441">
        <ele>983</ele>
        <time>2011-06-19T08:35:33Z</time>
      </trkpt>
      <trkpt lat="45.09684" lon="5.40447">
        <ele>988</ele>
        <time>2011-06-19T08:35:51Z</time>
      </trkpt>
      <trkpt lat="45.0969" lon="5.4045">
        <ele>991</ele>
        <time>2011-06-19T08:36:04Z</time>
      </trkpt>
      <trkpt lat="45.09691" lon="5.40459">
        <ele>993</ele>
        <time>2011-06-19T08:36:15Z</time>
      </trkpt>
      <trkpt lat="45.09685" lon="5.40468">
        <ele>995</ele>
        <time>2011-06-19T08:36:26Z</time>
      </trkpt>
      <trkpt lat="45.09675" lon="5.40469">
        <ele>997</ele>
        <time>2011-06-19T08:36:37Z</time>
      </trkpt>
      <trkpt lat="45.09673" lon="5.40472">
        <ele>998</ele>
        <time>2011-06-19T08:36:50Z</time>
      </trkpt>
      <trkpt lat="45.09666" lon="5.4047">
        <ele>999</ele>
        <time>2011-06-19T08:36:56Z</time>
      </trkpt>
      <trkpt lat="45.09662" lon="5.40474">
        <ele>1001</ele>
        <time>2011-06-19T08:37:02Z</time>
      </trkpt>
      <trkpt lat="45.09653" lon="5.40495">
        <ele>1007</ele>
        <time>2011-06-19T08:37:32Z</time>
      </trkpt>
      <trkpt lat="45.09645" lon="5.40517">
        <ele>1011</ele>
        <time>2011-06-19T08:37:51Z</time>
      </trkpt>
      <trkpt lat="45.09631" lon="5.40533">
        <ele>1015</ele>
        <time>2011-06-19T08:38:10Z</time>
      </trkpt>
      <trkpt lat="45.09622" lon="5.40541">
        <ele>1015</ele>
        <time>2011-06-19T08:38:23Z</time>
      </trkpt>
      <trkpt lat="45.09621" lon="5.4054">
        <ele>1017</ele>
        <time>2011-06-19T08:39:05Z</time>
      </trkpt>
      <trkpt lat="45.09621" lon="5.4054">
        <ele>1019</ele>
        <time>2011-06-19T08:39:49Z</time>
      </trkpt>
      <trkpt lat="45.09615" lon="5.40539">
        <ele>1020</ele>
        <time>2011-06-19T08:39:55Z</time>
      </trkpt>
      <trkpt lat="45.09595" lon="5.40539">
        <ele>1023</ele>
        <time>2011-06-19T08:40:10Z</time>
      </trkpt>
      <trkpt lat="45.09578" lon="5.40558">
        <ele>1026</ele>
        <time>2011-06-19T08:40:26Z</time>
      </trkpt>
      <trkpt lat="45.09542" lon="5.40606">
        <ele>1030</ele>
        <time>2011-06-19T08:40:57Z</time>
      </trkpt>
      <trkpt lat="45.09489" lon="5.40679">
        <ele>1033</ele>
        <time>2011-06-19T08:41:27Z</time>
      </trkpt>
      <trkpt lat="45.09456" lon="5.4075">
        <ele>1034</ele>
        <time>2011-06-19T08:41:58Z</time>
      </trkpt>
      <trkpt lat="45.09443" lon="5.40775">
        <ele>1035</ele>
        <time>2011-06-19T08:42:29Z</time>
      </trkpt>
      <trkpt lat="45.09432" lon="5.40839">
        <ele>1036</ele>
        <time>2011-06-19T08:43:02Z</time>
      </trkpt>
      <trkpt lat="45.09425" lon="5.40858">
        <ele>1037</ele>
        <time>2011-06-19T08:43:12Z</time>
      </trkpt>
      <trkpt lat="45.09426" lon="5.40865">
        <ele>1037</ele>
        <time>2011-06-19T08:43:18Z</time>
      </trkpt>
      <trkpt lat="45.09417" lon="5.4091">
        <ele>1040</ele>
        <time>2011-06-19T08:43:52Z</time>
      </trkpt>
      <trkpt lat="45.09416" lon="5.4092">
        <ele>1041</ele>
        <time>2011-06-19T08:44:05Z</time>
      </trkpt>
      <trkpt lat="45.09398" lon="5.40984">
        <ele>1045</ele>
        <time>2011-06-19T08:44:36Z</time>
      </trkpt>
      <trkpt lat="45.09396" lon="5.40992">
        <ele>1046</ele>
        <time>2011-06-19T08:44:40Z</time>
      </trkpt>
      <trkpt lat="45.09391" lon="5.40996">
        <ele>1047</ele>
        <time>2011-06-19T08:44:44Z</time>
      </trkpt>
      <trkpt lat="45.09349" lon="5.41026">
        <ele>1053</ele>
        <time>2011-06-19T08:45:15Z</time>
      </trkpt>
      <trkpt lat="45.09323" lon="5.41063">
        <ele>1058</ele>
        <time>2011-06-19T08:45:46Z</time>
      </trkpt>
      <trkpt lat="45.09315" lon="5.41073">
        <ele>1060</ele>
        <time>2011-06-19T08:45:54Z</time>
      </trkpt>
      <trkpt lat="45.09313" lon="5.4108">
        <ele>1060</ele>
        <time>2011-06-19T08:45:59Z</time>
      </trkpt>
      <trkpt lat="45.0932" lon="5.41108">
        <ele>1063</ele>
        <time>2011-06-19T08:46:13Z</time>
      </trkpt>
      <trkpt lat="45.09345" lon="5.41144">
        <ele>1067</ele>
        <time>2011-06-19T08:46:37Z</time>
      </trkpt>
      <trkpt lat="45.094" lon="5.41152">
        <ele>1072</ele>
        <time>2011-06-19T08:47:09Z</time>
      </trkpt>
      <trkpt lat="45.09415" lon="5.41169">
        <ele>1075</ele>
        <time>2011-06-19T08:48:04Z</time>
      </trkpt>
      <trkpt lat="45.09448" lon="5.41245">
        <ele>1077</ele>
        <time>2011-06-19T08:48:32Z</time>
      </trkpt>
      <trkpt lat="45.09433" lon="5.41344">
        <ele>1080</ele>
        <time>2011-06-19T08:49:03Z</time>
      </trkpt>
      <trkpt lat="45.09431" lon="5.41414">
        <ele>1084</ele>
        <time>2011-06-19T08:49:35Z</time>
      </trkpt>
      <trkpt lat="45.09443" lon="5.41497">
        <ele>1086</ele>
        <time>2011-06-19T08:50:07Z</time>
      </trkpt>
      <trkpt lat="45.09452" lon="5.41577">
        <ele>1089</ele>
        <time>2011-06-19T08:50:40Z</time>
      </trkpt>
      <trkpt lat="45.09449" lon="5.41605">
        <ele>1090</ele>
        <time>2011-06-19T08:50:52Z</time>
      </trkpt>
      <trkpt lat="45.09441" lon="5.41611">
        <ele>1091</ele>
        <time>2011-06-19T08:50:58Z</time>
      </trkpt>
      <trkpt lat="45.09434" lon="5.4162">
        <ele>1092</ele>
        <time>2011-06-19T08:51:05Z</time>
      </trkpt>
      <trkpt lat="45.09433" lon="5.41633">
        <ele>1095</ele>
        <time>2011-06-19T08:51:14Z</time>
      </trkpt>
      <trkpt lat="45.09442" lon="5.41663">
        <ele>1098</ele>
        <time>2011-06-19T08:51:27Z</time>
      </trkpt>
      <trkpt lat="45.09446" lon="5.41669">
        <ele>1099</ele>
        <time>2011-06-19T08:51:30Z</time>
      </trkpt>
      <trkpt lat="45.0946" lon="5.41678">
        <ele>1102</ele>
        <time>2011-06-19T08:51:40Z</time>
      </trkpt>
      <trkpt lat="45.09499" lon="5.41743">
        <ele>1110</ele>
        <time>2011-06-19T08:52:13Z</time>
      </trkpt>
      <trkpt lat="45.09565" lon="5.41816">
        <ele>1116</ele>
        <time>2011-06-19T08:52:45Z</time>
      </trkpt>
      <trkpt lat="45.09626" lon="5.41893">
        <ele>1124</ele>
        <time>2011-06-19T08:53:19Z</time>
      </trkpt>
      <trkpt lat="45.0969" lon="5.41966">
        <ele>1127</ele>
        <time>2011-06-19T08:53:49Z</time>
      </trkpt>
      <trkpt lat="45.09715" lon="5.41985">
        <ele>1129</ele>
        <time>2011-06-19T08:54:06Z</time>
      </trkpt>
      <trkpt lat="45.09731" lon="5.41978">
        <ele>1129</ele>
        <time>2011-06-19T08:54:15Z</time>
      </trkpt>
      <trkpt lat="45.0979" lon="5.41919">
        <ele>1132</ele>
        <time>2011-06-19T08:54:46Z</time>
      </trkpt>
      <trkpt lat="45.09866" lon="5.41857">
        <ele>1136</ele>
        <time>2011-06-19T08:55:16Z</time>
      </trkpt>
      <trkpt lat="45.09876" lon="5.41856">
        <ele>1136</ele>
        <time>2011-06-19T08:55:21Z</time>
      </trkpt>
      <trkpt lat="45.09885" lon="5.41864">
        <ele>1138</ele>
        <time>2011-06-19T08:55:28Z</time>
      </trkpt>
      <trkpt lat="45.09922" lon="5.41919">
        <ele>1140</ele>
        <time>2011-06-19T08:55:43Z</time>
      </trkpt>
      <trkpt lat="45.09921" lon="5.41962">
        <ele>1142</ele>
        <time>2011-06-19T08:55:57Z</time>
      </trkpt>
      <trkpt lat="45.09895" lon="5.42056">
        <ele>1147</ele>
        <time>2011-06-19T08:56:33Z</time>
      </trkpt>
      <trkpt lat="45.09881" lon="5.42113">
        <ele>1150</ele>
        <time>2011-06-19T08:56:50Z</time>
      </trkpt>
      <trkpt lat="45.09874" lon="5.42121">
        <ele>1152</ele>
        <time>2011-06-19T08:56:56Z</time>
      </trkpt>
      <trkpt lat="45.09803" lon="5.42138">
        <ele>1157</ele>
        <time>2011-06-19T08:57:27Z</time>
      </trkpt>
      <trkpt lat="45.09737" lon="5.4216">
        <ele>1162</ele>
        <time>2011-06-19T08:57:57Z</time>
      </trkpt>
      <trkpt lat="45.09666" lon="5.4217">
        <ele>1168</ele>
        <time>2011-06-19T08:58:29Z</time>
      </trkpt>
      <trkpt lat="45.09603" lon="5.42155">
        <ele>1174</ele>
        <time>2011-06-19T08:59:00Z</time>
      </trkpt>
      <trkpt lat="45.09551" lon="5.42128">
        <ele>1179</ele>
        <time>2011-06-19T08:59:32Z</time>
      </trkpt>
      <trkpt lat="45.09491" lon="5.42101">
        <ele>1184</ele>
        <time>2011-06-19T09:00:02Z</time>
      </trkpt>
      <trkpt lat="45.09438" lon="5.4207">
        <ele>1189</ele>
        <time>2011-06-19T09:00:32Z</time>
      </trkpt>
      <trkpt lat="45.09381" lon="5.42044">
        <ele>1194</ele>
        <time>2011-06-19T09:01:02Z</time>
      </trkpt>
      <trkpt lat="45.09325" lon="5.41995">
        <ele>1198</ele>
        <time>2011-06-19T09:01:33Z</time>
      </trkpt>
      <trkpt lat="45.09235" lon="5.41957">
        <ele>1206</ele>
        <time>2011-06-19T09:02:06Z</time>
      </trkpt>
      <trkpt lat="45.09195" lon="5.41979">
        <ele>1210</ele>
        <time>2011-06-19T09:02:20Z</time>
      </trkpt>
      <trkpt lat="45.09157" lon="5.42065">
        <ele>1215</ele>
        <time>2011-06-19T09:02:50Z</time>
      </trkpt>
      <trkpt lat="45.09097" lon="5.42159">
        <ele>1220</ele>
        <time>2011-06-19T09:03:21Z</time>
      </trkpt>
      <trkpt lat="45.09041" lon="5.42243">
        <ele>1224</ele>
        <time>2011-06-19T09:03:51Z</time>
      </trkpt>
      <trkpt lat="45.09005" lon="5.42329">
        <ele>1232</ele>
        <time>2011-06-19T09:04:22Z</time>
      </trkpt>
      <trkpt lat="45.08954" lon="5.42443">
        <ele>1245</ele>
        <time>2011-06-19T09:04:56Z</time>
      </trkpt>
      <trkpt lat="45.08945" lon="5.4245">
        <ele>1247</ele>
        <time>2011-06-19T09:05:00Z</time>
      </trkpt>
      <trkpt lat="45.08882" lon="5.42492">
        <ele>1251</ele>
        <time>2011-06-19T09:05:18Z</time>
      </trkpt>
      <trkpt lat="45.08874" lon="5.4252">
        <ele>1253</ele>
        <time>2011-06-19T09:05:26Z</time>
      </trkpt>
      <trkpt lat="45.08876" lon="5.42542">
        <ele>1254</ele>
        <time>2011-06-19T09:05:32Z</time>
      </trkpt>
      <trkpt lat="45.08868" lon="5.42565">
        <ele>1255</ele>
        <time>2011-06-19T09:05:55Z</time>
      </trkpt>
      <trkpt lat="45.08866" lon="5.4256">
        <ele>1255</ele>
        <time>2011-06-19T09:05:59Z</time>
      </trkpt>
      <trkpt lat="45.0887" lon="5.4256">
        <ele>1258</ele>
        <time>2011-06-19T09:06:56Z</time>
      </trkpt>
      <trkpt lat="45.08863" lon="5.4255">
        <ele>1258</ele>
        <time>2011-06-19T09:07:03Z</time>
      </trkpt>
      <trkpt lat="45.08859" lon="5.42547">
        <ele>1259</ele>
        <time>2011-06-19T09:07:37Z</time>
      </trkpt>
      <trkpt lat="45.08865" lon="5.42563">
        <ele>1259</ele>
        <time>2011-06-19T09:07:41Z</time>
      </trkpt>
      <trkpt lat="45.08864" lon="5.42574">
        <ele>1259</ele>
        <time>2011-06-19T09:07:57Z</time>
      </trkpt>
      <trkpt lat="45.08859" lon="5.42572">
        <ele>1259</ele>
        <time>2011-06-19T09:08:08Z</time>
      </trkpt>
      <trkpt lat="45.08859" lon="5.42559">
        <ele>1260</ele>
        <time>2011-06-19T09:08:14Z</time>
      </trkpt>
      <trkpt lat="45.08858" lon="5.42553">
        <ele>1260</ele>
        <time>2011-06-19T09:08:24Z</time>
      </trkpt>
      <trkpt lat="45.08862" lon="5.4255">
        <ele>1261</ele>
        <time>2011-06-19T09:08:40Z</time>
      </trkpt>
      <trkpt lat="45.08872" lon="5.42553">
        <ele>1261</ele>
        <time>2011-06-19T09:08:48Z</time>
      </trkpt>
      <trkpt lat="45.08878" lon="5.42563">
        <ele>1261</ele>
        <time>2011-06-19T09:08:58Z</time>
      </trkpt>
      <trkpt lat="45.08887" lon="5.4256">
        <ele>1263</ele>
        <time>2011-06-19T09:09:48Z</time>
      </trkpt>
      <trkpt lat="45.08879" lon="5.4257">
        <ele>1264</ele>
        <time>2011-06-19T09:10:05Z</time>
      </trkpt>
      <trkpt lat="45.08873" lon="5.42573">
        <ele>1264</ele>
        <time>2011-06-19T09:10:08Z</time>
      </trkpt>
      <trkpt lat="45.08866" lon="5.42567">
        <ele>1265</ele>
        <time>2011-06-19T09:10:18Z</time>
      </trkpt>
      <trkpt lat="45.08862" lon="5.42556">
        <ele>1265</ele>
        <time>2011-06-19T09:10:51Z</time>
      </trkpt>
      <trkpt lat="45.08859" lon="5.4255">
        <ele>1265</ele>
        <time>2011-06-19T09:11:07Z</time>
      </trkpt>
      <trkpt lat="45.08863" lon="5.42547">
        <ele>1265</ele>
        <time>2011-06-19T09:11:30Z</time>
      </trkpt>
      <trkpt lat="45.08869" lon="5.42561">
        <ele>1265</ele>
        <time>2011-06-19T09:11:47Z</time>
      </trkpt>
      <trkpt lat="45.08869" lon="5.42561">
        <ele>1265</ele>
        <time>2011-06-19T09:12:03Z</time>
      </trkpt>
      <trkpt lat="45.08878" lon="5.42561">
        <ele>1266</ele>
        <time>2011-06-19T09:12:26Z</time>
      </trkpt>
      <trkpt lat="45.08887" lon="5.42559">
        <ele>1266</ele>
        <time>2011-06-19T09:12:30Z</time>
      </trkpt>
      <trkpt lat="45.08884" lon="5.42559">
        <ele>1267</ele>
        <time>2011-06-19T09:12:57Z</time>
      </trkpt>
      <trkpt lat="45.08876" lon="5.42563">
        <ele>1267</ele>
        <time>2011-06-19T09:13:12Z</time>
      </trkpt>
      <trkpt lat="45.08872" lon="5.42566">
        <ele>1267</ele>
        <time>2011-06-19T09:13:17Z</time>
      </trkpt>
      <trkpt lat="45.08873" lon="5.42556">
        <ele>1267</ele>
        <time>2011-06-19T09:14:15Z</time>
      </trkpt>
      <trkpt lat="45.08868" lon="5.42553">
        <ele>1268</ele>
        <time>2011-06-19T09:14:32Z</time>
      </trkpt>
      <trkpt lat="45.08859" lon="5.42547">
        <ele>1269</ele>
        <time>2011-06-19T09:14:59Z</time>
      </trkpt>
      <trkpt lat="45.08858" lon="5.42553">
        <ele>1270</ele>
        <time>2011-06-19T09:15:26Z</time>
      </trkpt>
      <trkpt lat="45.08865" lon="5.42563">
        <ele>1270</ele>
        <time>2011-06-19T09:15:30Z</time>
      </trkpt>
      <trkpt lat="45.08864" lon="5.4257">
        <ele>1270</ele>
        <time>2011-06-19T09:15:35Z</time>
      </trkpt>
      <trkpt lat="45.08865" lon="5.42571">
        <ele>1270</ele>
        <time>2011-06-19T09:15:55Z</time>
      </trkpt>
      <trkpt lat="45.08867" lon="5.42578">
        <ele>1270</ele>
        <time>2011-06-19T09:16:11Z</time>
      </trkpt>
      <trkpt lat="45.08863" lon="5.4259">
        <ele>1270</ele>
        <time>2011-06-19T09:16:34Z</time>
      </trkpt>
      <trkpt lat="45.08865" lon="5.42583">
        <ele>1271</ele>
        <time>2011-06-19T09:17:32Z</time>
      </trkpt>
      <trkpt lat="45.08861" lon="5.4258">
        <ele>1272</ele>
        <time>2011-06-19T09:17:42Z</time>
      </trkpt>
      <trkpt lat="45.08861" lon="5.42573">
        <ele>1271</ele>
        <time>2011-06-19T09:17:53Z</time>
      </trkpt>
      <trkpt lat="45.08865" lon="5.42569">
        <ele>1271</ele>
        <time>2011-06-19T09:18:00Z</time>
      </trkpt>
      <trkpt lat="45.08867" lon="5.42558">
        <ele>1270</ele>
        <time>2011-06-19T09:18:15Z</time>
      </trkpt>
      <trkpt lat="45.08868" lon="5.42548">
        <ele>1270</ele>
        <time>2011-06-19T09:18:35Z</time>
      </trkpt>
      <trkpt lat="45.08864" lon="5.42548">
        <ele>1269</ele>
        <time>2011-06-19T09:18:55Z</time>
      </trkpt>
      <trkpt lat="45.0886" lon="5.42543">
        <ele>1269</ele>
        <time>2011-06-19T09:19:11Z</time>
      </trkpt>
      <trkpt lat="45.08857" lon="5.4254">
        <ele>1268</ele>
        <time>2011-06-19T09:19:17Z</time>
      </trkpt>
      <trkpt lat="45.08864" lon="5.42551">
        <ele>1268</ele>
        <time>2011-06-19T09:19:39Z</time>
      </trkpt>
      <trkpt lat="45.0894" lon="5.42641">
        <ele>1267</ele>
        <time>2011-06-19T09:20:10Z</time>
      </trkpt>
      <trkpt lat="45.08951" lon="5.42677">
        <ele>1268</ele>
        <time>2011-06-19T09:20:15Z</time>
      </trkpt>
      <trkpt lat="45.08947" lon="5.42694">
        <ele>1268</ele>
        <time>2011-06-19T09:20:18Z</time>
      </trkpt>
      <trkpt lat="45.08944" lon="5.427">
        <ele>1268</ele>
        <time>2011-06-19T09:20:20Z</time>
      </trkpt>
      <trkpt lat="45.08937" lon="5.42705">
        <ele>1268</ele>
        <time>2011-06-19T09:20:24Z</time>
      </trkpt>
      <trkpt lat="45.08893" lon="5.42706">
        <ele>1268</ele>
        <time>2011-06-19T09:20:37Z</time>
      </trkpt>
      <trkpt lat="45.08834" lon="5.4264">
        <ele>1268</ele>
        <time>2011-06-19T09:21:07Z</time>
      </trkpt>
      <trkpt lat="45.08796" lon="5.42558">
        <ele>1270</ele>
        <time>2011-06-19T09:21:38Z</time>
      </trkpt>
      <trkpt lat="45.08728" lon="5.42476">
        <ele>1273</ele>
        <time>2011-06-19T09:22:08Z</time>
      </trkpt>
      <trkpt lat="45.08703" lon="5.42433">
        <ele>1274</ele>
        <time>2011-06-19T09:22:36Z</time>
      </trkpt>
      <trkpt lat="45.08692" lon="5.42357">
        <ele>1277</ele>
        <time>2011-06-19T09:23:09Z</time>
      </trkpt>
      <trkpt lat="45.08687" lon="5.42308">
        <ele>1279</ele>
        <time>2011-06-19T09:23:40Z</time>
      </trkpt>
      <trkpt lat="45.08685" lon="5.42292">
        <ele>1281</ele>
        <time>2011-06-19T09:24:04Z</time>
      </trkpt>
      <trkpt lat="45.08687" lon="5.42291">
        <ele>1281</ele>
        <time>2011-06-19T09:24:10Z</time>
      </trkpt>
      <trkpt lat="45.08684" lon="5.42285">
        <ele>1282</ele>
        <time>2011-06-19T09:24:27Z</time>
      </trkpt>
      <trkpt lat="45.08684" lon="5.42261">
        <ele>1283</ele>
        <time>2011-06-19T09:24:54Z</time>
      </trkpt>
      <trkpt lat="45.08687" lon="5.42247">
        <ele>1284</ele>
        <time>2011-06-19T09:25:04Z</time>
      </trkpt>
      <trkpt lat="45.08686" lon="5.42234">
        <ele>1285</ele>
        <time>2011-06-19T09:25:18Z</time>
      </trkpt>
      <trkpt lat="45.08677" lon="5.42217">
        <ele>1286</ele>
        <time>2011-06-19T09:25:40Z</time>
      </trkpt>
      <trkpt lat="45.08655" lon="5.4219">
        <ele>1289</ele>
        <time>2011-06-19T09:26:12Z</time>
      </trkpt>
      <trkpt lat="45.0862" lon="5.42176">
        <ele>1291</ele>
        <time>2011-06-19T09:26:35Z</time>
      </trkpt>
      <trkpt lat="45.08623" lon="5.42171">
        <ele>1292</ele>
        <time>2011-06-19T09:26:55Z</time>
      </trkpt>
      <trkpt lat="45.08619" lon="5.42173">
        <ele>1292</ele>
        <time>2011-06-19T09:27:51Z</time>
      </trkpt>
      <trkpt lat="45.08616" lon="5.42173">
        <ele>1293</ele>
        <time>2011-06-19T09:28:40Z</time>
      </trkpt>
      <trkpt lat="45.08608" lon="5.42171">
        <ele>1293</ele>
        <time>2011-06-19T09:29:06Z</time>
      </trkpt>
      <trkpt lat="45.08526" lon="5.42214">
        <ele>1292</ele>
        <time>2011-06-19T09:29:36Z</time>
      </trkpt>
      <trkpt lat="45.08464" lon="5.42283">
        <ele>1285</ele>
        <time>2011-06-19T09:30:07Z</time>
      </trkpt>
      <trkpt lat="45.0841" lon="5.4229">
        <ele>1279</ele>
        <time>2011-06-19T09:30:29Z</time>
      </trkpt>
      <trkpt lat="45.08356" lon="5.42273">
        <ele>1275</ele>
        <time>2011-06-19T09:30:45Z</time>
      </trkpt>
      <trkpt lat="45.08336" lon="5.42274">
        <ele>1269</ele>
        <time>2011-06-19T09:30:49Z</time>
      </trkpt>
      <trkpt lat="45.08307" lon="5.42285">
        <ele>1264</ele>
        <time>2011-06-19T09:30:56Z</time>
      </trkpt>
      <trkpt lat="45.08261" lon="5.42323">
        <ele>1261</ele>
        <time>2011-06-19T09:31:11Z</time>
      </trkpt>
      <trkpt lat="45.08266" lon="5.42323">
        <ele>1259</ele>
        <time>2011-06-19T09:31:19Z</time>
      </trkpt>
      <trkpt lat="45.08268" lon="5.42332">
        <ele>1255</ele>
        <time>2011-06-19T09:31:35Z</time>
      </trkpt>
      <trkpt lat="45.08267" lon="5.4238">
        <ele>1252</ele>
        <time>2011-06-19T09:31:48Z</time>
      </trkpt>
      <trkpt lat="45.08221" lon="5.42482">
        <ele>1244</ele>
        <time>2011-06-19T09:32:19Z</time>
      </trkpt>
      <trkpt lat="45.08212" lon="5.4249">
        <ele>1242</ele>
        <time>2011-06-19T09:32:23Z</time>
      </trkpt>
      <trkpt lat="45.08211" lon="5.42497">
        <ele>1242</ele>
        <time>2011-06-19T09:32:25Z</time>
      </trkpt>
      <trkpt lat="45.08205" lon="5.42621">
        <ele>1229</ele>
        <time>2011-06-19T09:32:58Z</time>
      </trkpt>
      <trkpt lat="45.08205" lon="5.42693">
        <ele>1224</ele>
        <time>2011-06-19T09:33:13Z</time>
      </trkpt>
      <trkpt lat="45.08173" lon="5.42718">
        <ele>1222</ele>
        <time>2011-06-19T09:33:32Z</time>
      </trkpt>
      <trkpt lat="45.08171" lon="5.42724">
        <ele>1221</ele>
        <time>2011-06-19T09:33:48Z</time>
      </trkpt>
      <trkpt lat="45.08167" lon="5.42728">
        <ele>1221</ele>
        <time>2011-06-19T09:33:56Z</time>
      </trkpt>
      <trkpt lat="45.08162" lon="5.42726">
        <ele>1220</ele>
        <time>2011-06-19T09:34:05Z</time>
      </trkpt>
      <trkpt lat="45.08059" lon="5.42711">
        <ele>1213</ele>
        <time>2011-06-19T09:34:37Z</time>
      </trkpt>
      <trkpt lat="45.08038" lon="5.42709">
        <ele>1212</ele>
        <time>2011-06-19T09:34:43Z</time>
      </trkpt>
      <trkpt lat="45.0803" lon="5.42716">
        <ele>1211</ele>
        <time>2011-06-19T09:34:48Z</time>
      </trkpt>
      <trkpt lat="45.07952" lon="5.42784">
        <ele>1206</ele>
        <time>2011-06-19T09:35:19Z</time>
      </trkpt>
      <trkpt lat="45.07876" lon="5.42813">
        <ele>1198</ele>
        <time>2011-06-19T09:35:45Z</time>
      </trkpt>
      <trkpt lat="45.07878" lon="5.42806">
        <ele>1198</ele>
        <time>2011-06-19T09:35:52Z</time>
      </trkpt>
      <trkpt lat="45.07882" lon="5.42802">
        <ele>1197</ele>
        <time>2011-06-19T09:36:27Z</time>
      </trkpt>
      <trkpt lat="45.07882" lon="5.42818">
        <ele>1193</ele>
        <time>2011-06-19T09:36:40Z</time>
      </trkpt>
      <trkpt lat="45.07874" lon="5.42825">
        <ele>1192</ele>
        <time>2011-06-19T09:36:42Z</time>
      </trkpt>
      <trkpt lat="45.07855" lon="5.42839">
        <ele>1191</ele>
        <time>2011-06-19T09:36:46Z</time>
      </trkpt>
      <trkpt lat="45.07843" lon="5.42842">
        <ele>1187</ele>
        <time>2011-06-19T09:36:48Z</time>
      </trkpt>
      <trkpt lat="45.07767" lon="5.42843">
        <ele>1182</ele>
        <time>2011-06-19T09:37:07Z</time>
      </trkpt>
      <trkpt lat="45.07703" lon="5.42826">
        <ele>1167</ele>
        <time>2011-06-19T09:37:19Z</time>
      </trkpt>
      <trkpt lat="45.07652" lon="5.42784">
        <ele>1166</ele>
        <time>2011-06-19T09:37:35Z</time>
      </trkpt>
      <trkpt lat="45.07646" lon="5.42784">
        <ele>1165</ele>
        <time>2011-06-19T09:37:40Z</time>
      </trkpt>
      <trkpt lat="45.07645" lon="5.42792">
        <ele>1164</ele>
        <time>2011-06-19T09:37:45Z</time>
      </trkpt>
      <trkpt lat="45.07644" lon="5.42798">
        <ele>1163</ele>
        <time>2011-06-19T09:37:49Z</time>
      </trkpt>
      <trkpt lat="45.07608" lon="5.42877">
        <ele>1159</ele>
        <time>2011-06-19T09:38:13Z</time>
      </trkpt>
      <trkpt lat="45.07606" lon="5.42909">
        <ele>1152</ele>
        <time>2011-06-19T09:38:19Z</time>
      </trkpt>
      <trkpt lat="45.0763" lon="5.43065">
        <ele>1140</ele>
        <time>2011-06-19T09:38:50Z</time>
      </trkpt>
      <trkpt lat="45.07629" lon="5.43097">
        <ele>1138</ele>
        <time>2011-06-19T09:39:01Z</time>
      </trkpt>
      <trkpt lat="45.07629" lon="5.43098">
        <ele>1136</ele>
        <time>2011-06-19T09:39:36Z</time>
      </trkpt>
      <trkpt lat="45.07634" lon="5.43095">
        <ele>1135</ele>
        <time>2011-06-19T09:39:50Z</time>
      </trkpt>
      <trkpt lat="45.07638" lon="5.43097">
        <ele>1135</ele>
        <time>2011-06-19T09:39:58Z</time>
      </trkpt>
      <trkpt lat="45.07632" lon="5.4311">
        <ele>1129</ele>
        <time>2011-06-19T09:40:15Z</time>
      </trkpt>
      <trkpt lat="45.07561" lon="5.4316">
        <ele>1109</ele>
        <time>2011-06-19T09:40:28Z</time>
      </trkpt>
      <trkpt lat="45.07553" lon="5.43192">
        <ele>1104</ele>
        <time>2011-06-19T09:40:34Z</time>
      </trkpt>
      <trkpt lat="45.07549" lon="5.43245">
        <ele>1097</ele>
        <time>2011-06-19T09:40:42Z</time>
      </trkpt>
      <trkpt lat="45.07547" lon="5.43254">
        <ele>1097</ele>
        <time>2011-06-19T09:40:44Z</time>
      </trkpt>
      <trkpt lat="45.07543" lon="5.43269">
        <ele>1096</ele>
        <time>2011-06-19T09:40:52Z</time>
      </trkpt>
      <trkpt lat="45.07491" lon="5.43337">
        <ele>1091</ele>
        <time>2011-06-19T09:41:22Z</time>
      </trkpt>
      <trkpt lat="45.07479" lon="5.43338">
        <ele>1091</ele>
        <time>2011-06-19T09:41:26Z</time>
      </trkpt>
      <trkpt lat="45.07429" lon="5.4335">
        <ele>1085</ele>
        <time>2011-06-19T09:41:34Z</time>
      </trkpt>
      <trkpt lat="45.07381" lon="5.43376">
        <ele>1082</ele>
        <time>2011-06-19T09:41:50Z</time>
      </trkpt>
      <trkpt lat="45.07373" lon="5.43461">
        <ele>1078</ele>
        <time>2011-06-19T09:42:14Z</time>
      </trkpt>
      <trkpt lat="45.07393" lon="5.43561">
        <ele>1077</ele>
        <time>2011-06-19T09:42:44Z</time>
      </trkpt>
      <trkpt lat="45.07425" lon="5.43657">
        <ele>1074</ele>
        <time>2011-06-19T09:43:16Z</time>
      </trkpt>
      <trkpt lat="45.07446" lon="5.43743">
        <ele>1074</ele>
        <time>2011-06-19T09:43:46Z</time>
      </trkpt>
      <trkpt lat="45.07436" lon="5.43774">
        <ele>1075</ele>
        <time>2011-06-19T09:43:53Z</time>
      </trkpt>
      <trkpt lat="45.07421" lon="5.43801">
        <ele>1075</ele>
        <time>2011-06-19T09:43:56Z</time>
      </trkpt>
      <trkpt lat="45.07427" lon="5.43812">
        <ele>1074</ele>
        <time>2011-06-19T09:44:00Z</time>
      </trkpt>
      <trkpt lat="45.07455" lon="5.43844">
        <ele>1072</ele>
        <time>2011-06-19T09:44:15Z</time>
      </trkpt>
      <trkpt lat="45.07474" lon="5.4385">
        <ele>1071</ele>
        <time>2011-06-19T09:44:23Z</time>
      </trkpt>
      <trkpt lat="45.07559" lon="5.43923">
        <ele>1072</ele>
        <time>2011-06-19T09:44:49Z</time>
      </trkpt>
      <trkpt lat="45.07596" lon="5.44024">
        <ele>1070</ele>
        <time>2011-06-19T09:45:12Z</time>
      </trkpt>
      <trkpt lat="45.07651" lon="5.44076">
        <ele>1066</ele>
        <time>2011-06-19T09:45:44Z</time>
      </trkpt>
      <trkpt lat="45.07653" lon="5.44078">
        <ele>1064</ele>
        <time>2011-06-19T09:46:22Z</time>
      </trkpt>
      <trkpt lat="45.07657" lon="5.44076">
        <ele>1059</ele>
        <time>2011-06-19T09:47:13Z</time>
      </trkpt>
      <trkpt lat="45.07665" lon="5.44088">
        <ele>1059</ele>
        <time>2011-06-19T09:47:18Z</time>
      </trkpt>
      <trkpt lat="45.07684" lon="5.44087">
        <ele>1057</ele>
        <time>2011-06-19T09:47:36Z</time>
      </trkpt>
      <trkpt lat="45.07704" lon="5.4408">
        <ele>1055</ele>
        <time>2011-06-19T09:47:57Z</time>
      </trkpt>
      <trkpt lat="45.07706" lon="5.44086">
        <ele>1055</ele>
        <time>2011-06-19T09:48:05Z</time>
      </trkpt>
      <trkpt lat="45.07708" lon="5.44086">
        <ele>1055</ele>
        <time>2011-06-19T09:49:07Z</time>
      </trkpt>
      <trkpt lat="45.07713" lon="5.44082">
        <ele>1055</ele>
        <time>2011-06-19T09:49:13Z</time>
      </trkpt>
      <trkpt lat="45.07756" lon="5.44064">
        <ele>1055</ele>
        <time>2011-06-19T09:49:30Z</time>
      </trkpt>
      <trkpt lat="45.07791" lon="5.44094">
        <ele>1056</ele>
        <time>2011-06-19T09:49:43Z</time>
      </trkpt>
      <trkpt lat="45.07804" lon="5.44132">
        <ele>1057</ele>
        <time>2011-06-19T09:49:51Z</time>
      </trkpt>
      <trkpt lat="45.0781" lon="5.44166">
        <ele>1061</ele>
        <time>2011-06-19T09:49:55Z</time>
      </trkpt>
      <trkpt lat="45.07836" lon="5.44222">
        <ele>1060</ele>
        <time>2011-06-19T09:50:07Z</time>
      </trkpt>
      <trkpt lat="45.07842" lon="5.44226">
        <ele>1060</ele>
        <time>2011-06-19T09:50:09Z</time>
      </trkpt>
      <trkpt lat="45.07929" lon="5.44226">
        <ele>1054</ele>
        <time>2011-06-19T09:50:25Z</time>
      </trkpt>
      <trkpt lat="45.07947" lon="5.44217">
        <ele>1052</ele>
        <time>2011-06-19T09:50:29Z</time>
      </trkpt>
      <trkpt lat="45.07966" lon="5.44212">
        <ele>1052</ele>
        <time>2011-06-19T09:50:33Z</time>
      </trkpt>
      <trkpt lat="45.07977" lon="5.44221">
        <ele>1052</ele>
        <time>2011-06-19T09:50:36Z</time>
      </trkpt>
      <trkpt lat="45.08048" lon="5.44318">
        <ele>1057</ele>
        <time>2011-06-19T09:51:11Z</time>
      </trkpt>
      <trkpt lat="45.08122" lon="5.44391">
        <ele>1061</ele>
        <time>2011-06-19T09:51:43Z</time>
      </trkpt>
      <trkpt lat="45.08125" lon="5.44398">
        <ele>1061</ele>
        <time>2011-06-19T09:51:45Z</time>
      </trkpt>
      <trkpt lat="45.08134" lon="5.44404">
        <ele>1062</ele>
        <time>2011-06-19T09:51:51Z</time>
      </trkpt>
      <trkpt lat="45.08191" lon="5.44401">
        <ele>1064</ele>
        <time>2011-06-19T09:52:23Z</time>
      </trkpt>
      <trkpt lat="45.08256" lon="5.44431">
        <ele>1066</ele>
        <time>2011-06-19T09:52:56Z</time>
      </trkpt>
      <trkpt lat="45.08341" lon="5.44417">
        <ele>1069</ele>
        <time>2011-06-19T09:53:27Z</time>
      </trkpt>
      <trkpt lat="45.08351" lon="5.44418">
        <ele>1069</ele>
        <time>2011-06-19T09:53:31Z</time>
      </trkpt>
      <trkpt lat="45.0836" lon="5.44427">
        <ele>1070</ele>
        <time>2011-06-19T09:53:35Z</time>
      </trkpt>
      <trkpt lat="45.08397" lon="5.44517">
        <ele>1069</ele>
        <time>2011-06-19T09:53:48Z</time>
      </trkpt>
      <trkpt lat="45.084" lon="5.44542">
        <ele>1069</ele>
        <time>2011-06-19T09:53:56Z</time>
      </trkpt>
      <trkpt lat="45.08421" lon="5.44573">
        <ele>1070</ele>
        <time>2011-06-19T09:54:18Z</time>
      </trkpt>
      <trkpt lat="45.08434" lon="5.4457">
        <ele>1069</ele>
        <time>2011-06-19T09:54:27Z</time>
      </trkpt>
      <trkpt lat="45.08437" lon="5.44566">
        <ele>1069</ele>
        <time>2011-06-19T09:54:33Z</time>
      </trkpt>
      <trkpt lat="45.08429" lon="5.44574">
        <ele>1069</ele>
        <time>2011-06-19T09:54:39Z</time>
      </trkpt>
      <trkpt lat="45.08419" lon="5.44574">
        <ele>1069</ele>
        <time>2011-06-19T09:54:52Z</time>
      </trkpt>
      <trkpt lat="45.08423" lon="5.44578">
        <ele>1069</ele>
        <time>2011-06-19T09:55:03Z</time>
      </trkpt>
      <trkpt lat="45.08424" lon="5.44583">
        <ele>1068</ele>
        <time>2011-06-19T09:55:38Z</time>
      </trkpt>
      <trkpt lat="45.08424" lon="5.44574">
        <ele>1066</ele>
        <time>2011-06-19T09:56:30Z</time>
      </trkpt>
      <trkpt lat="45.08428" lon="5.44579">
        <ele>1065</ele>
        <time>2011-06-19T09:56:37Z</time>
      </trkpt>
      <trkpt lat="45.08469" lon="5.44606">
        <ele>1063</ele>
        <time>2011-06-19T09:56:59Z</time>
      </trkpt>
      <trkpt lat="45.08488" lon="5.44601">
        <ele>1062</ele>
        <time>2011-06-19T09:57:04Z</time>
      </trkpt>
      <trkpt lat="45.08505" lon="5.44589">
        <ele>1060</ele>
        <time>2011-06-19T09:57:08Z</time>
      </trkpt>
      <trkpt lat="45.08544" lon="5.44559">
        <ele>1059</ele>
        <time>2011-06-19T09:57:22Z</time>
      </trkpt>
      <trkpt lat="45.08552" lon="5.44559">
        <ele>1058</ele>
        <time>2011-06-19T09:57:28Z</time>
      </trkpt>
      <trkpt lat="45.08558" lon="5.4457">
        <ele>1057</ele>
        <time>2011-06-19T09:57:37Z</time>
      </trkpt>
      <trkpt lat="45.08609" lon="5.44665">
        <ele>1055</ele>
        <time>2011-06-19T09:58:15Z</time>
      </trkpt>
      <trkpt lat="45.08613" lon="5.4467">
        <ele>1055</ele>
        <time>2011-06-19T09:58:19Z</time>
      </trkpt>
      <trkpt lat="45.08615" lon="5.44676">
        <ele>1054</ele>
        <time>2011-06-19T09:58:41Z</time>
      </trkpt>
      <trkpt lat="45.08625" lon="5.44682">
        <ele>1052</ele>
        <time>2011-06-19T09:58:51Z</time>
      </trkpt>
      <trkpt lat="45.08632" lon="5.44685">
        <ele>1049</ele>
        <time>2011-06-19T09:59:06Z</time>
      </trkpt>
      <trkpt lat="45.08642" lon="5.44684">
        <ele>1042</ele>
        <time>2011-06-19T09:59:33Z</time>
      </trkpt>
      <trkpt lat="45.08653" lon="5.44696">
        <ele>1038</ele>
        <time>2011-06-19T09:59:46Z</time>
      </trkpt>
      <trkpt lat="45.08671" lon="5.44739">
        <ele>1029</ele>
        <time>2011-06-19T10:00:24Z</time>
      </trkpt>
      <trkpt lat="45.08675" lon="5.44755">
        <ele>1028</ele>
        <time>2011-06-19T10:00:38Z</time>
      </trkpt>
      <trkpt lat="45.08673" lon="5.44777">
        <ele>1029</ele>
        <time>2011-06-19T10:00:56Z</time>
      </trkpt>
      <trkpt lat="45.08675" lon="5.44783">
        <ele>1030</ele>
        <time>2011-06-19T10:01:09Z</time>
      </trkpt>
      <trkpt lat="45.08674" lon="5.44791">
        <ele>1030</ele>
        <time>2011-06-19T10:01:21Z</time>
      </trkpt>
      <trkpt lat="45.08676" lon="5.44798">
        <ele>1029</ele>
        <time>2011-06-19T10:01:27Z</time>
      </trkpt>
      <trkpt lat="45.08675" lon="5.44817">
        <ele>1029</ele>
        <time>2011-06-19T10:01:53Z</time>
      </trkpt>
      <trkpt lat="45.08679" lon="5.44814">
        <ele>1029</ele>
        <time>2011-06-19T10:02:05Z</time>
      </trkpt>
      <trkpt lat="45.08683" lon="5.44803">
        <ele>1028</ele>
        <time>2011-06-19T10:02:32Z</time>
      </trkpt>
      <trkpt lat="45.08688" lon="5.44808">
        <ele>1027</ele>
        <time>2011-06-19T10:02:49Z</time>
      </trkpt>
      <trkpt lat="45.08689" lon="5.44814">
        <ele>1027</ele>
        <time>2011-06-19T10:03:11Z</time>
      </trkpt>
      <trkpt lat="45.08694" lon="5.44814">
        <ele>1027</ele>
        <time>2011-06-19T10:03:17Z</time>
      </trkpt>
      <trkpt lat="45.08692" lon="5.44816">
        <ele>1029</ele>
        <time>2011-06-19T10:04:46Z</time>
      </trkpt>
      <trkpt lat="45.08688" lon="5.44819">
        <ele>1029</ele>
        <time>2011-06-19T10:04:53Z</time>
      </trkpt>
      <trkpt lat="45.08689" lon="5.44825">
        <ele>1031</ele>
        <time>2011-06-19T10:05:37Z</time>
      </trkpt>
      <trkpt lat="45.0869" lon="5.44825">
        <ele>1032</ele>
        <time>2011-06-19T10:06:13Z</time>
      </trkpt>
      <trkpt lat="45.08694" lon="5.44825">
        <ele>1033</ele>
        <time>2011-06-19T10:06:27Z</time>
      </trkpt>
      <trkpt lat="45.08711" lon="5.44799">
        <ele>1035</ele>
        <time>2011-06-19T10:06:57Z</time>
      </trkpt>
      <trkpt lat="45.08718" lon="5.44802">
        <ele>1036</ele>
        <time>2011-06-19T10:07:03Z</time>
      </trkpt>
      <trkpt lat="45.08731" lon="5.44816">
        <ele>1037</ele>
        <time>2011-06-19T10:07:15Z</time>
      </trkpt>
      <trkpt lat="45.08746" lon="5.44869">
        <ele>1039</ele>
        <time>2011-06-19T10:07:36Z</time>
      </trkpt>
      <trkpt lat="45.08729" lon="5.44967">
        <ele>1041</ele>
        <time>2011-06-19T10:08:06Z</time>
      </trkpt>
      <trkpt lat="45.0874" lon="5.45005">
        <ele>1041</ele>
        <time>2011-06-19T10:08:22Z</time>
      </trkpt>
      <trkpt lat="45.08799" lon="5.45042">
        <ele>1041</ele>
        <time>2011-06-19T10:08:52Z</time>
      </trkpt>
      <trkpt lat="45.08882" lon="5.45107">
        <ele>1040</ele>
        <time>2011-06-19T10:09:24Z</time>
      </trkpt>
      <trkpt lat="45.09018" lon="5.45125">
        <ele>1037</ele>
        <time>2011-06-19T10:09:56Z</time>
      </trkpt>
      <trkpt lat="45.09049" lon="5.45111">
        <ele>1036</ele>
        <time>2011-06-19T10:10:10Z</time>
      </trkpt>
      <trkpt lat="45.09099" lon="5.45096">
        <ele>1033</ele>
        <time>2011-06-19T10:10:44Z</time>
      </trkpt>
      <trkpt lat="45.09123" lon="5.45099">
        <ele>1034</ele>
        <time>2011-06-19T10:10:56Z</time>
      </trkpt>
      <trkpt lat="45.09129" lon="5.45109">
        <ele>1034</ele>
        <time>2011-06-19T10:11:00Z</time>
      </trkpt>
      <trkpt lat="45.09133" lon="5.45122">
        <ele>1034</ele>
        <time>2011-06-19T10:11:07Z</time>
      </trkpt>
      <trkpt lat="45.09159" lon="5.45138">
        <ele>1035</ele>
        <time>2011-06-19T10:11:20Z</time>
      </trkpt>
      <trkpt lat="45.09225" lon="5.45132">
        <ele>1034</ele>
        <time>2011-06-19T10:11:51Z</time>
      </trkpt>
      <trkpt lat="45.09283" lon="5.45099">
        <ele>1034</ele>
        <time>2011-06-19T10:12:22Z</time>
      </trkpt>
      <trkpt lat="45.09334" lon="5.45135">
        <ele>1033</ele>
        <time>2011-06-19T10:13:00Z</time>
      </trkpt>
      <trkpt lat="45.09341" lon="5.45136">
        <ele>1032</ele>
        <time>2011-06-19T10:13:21Z</time>
      </trkpt>
      <trkpt lat="45.09343" lon="5.45133">
        <ele>1032</ele>
        <time>2011-06-19T10:13:31Z</time>
      </trkpt>
      <trkpt lat="45.09342" lon="5.45127">
        <ele>1032</ele>
        <time>2011-06-19T10:13:37Z</time>
      </trkpt>
      <trkpt lat="45.09343" lon="5.4512">
        <ele>1032</ele>
        <time>2011-06-19T10:13:42Z</time>
      </trkpt>
      <trkpt lat="45.09348" lon="5.45121">
        <ele>1032</ele>
        <time>2011-06-19T10:13:48Z</time>
      </trkpt>
      <trkpt lat="45.09349" lon="5.45119">
        <ele>1032</ele>
        <time>2011-06-19T10:17:56Z</time>
      </trkpt>
      <trkpt lat="45.09343" lon="5.45101">
        <ele>1032</ele>
        <time>2011-06-19T10:18:30Z</time>
      </trkpt>
      <trkpt lat="45.09341" lon="5.45094">
        <ele>1032</ele>
        <time>2011-06-19T10:18:34Z</time>
      </trkpt>
      <trkpt lat="45.09346" lon="5.45092">
        <ele>1032</ele>
        <time>2011-06-19T10:18:43Z</time>
      </trkpt>
      <trkpt lat="45.0935" lon="5.45089">
        <ele>1032</ele>
        <time>2011-06-19T10:18:49Z</time>
      </trkpt>
      <trkpt lat="45.09351" lon="5.45083">
        <ele>1032</ele>
        <time>2011-06-19T10:18:54Z</time>
      </trkpt>
      <trkpt lat="45.09353" lon="5.45066">
        <ele>1033</ele>
        <time>2011-06-19T10:19:04Z</time>
      </trkpt>
      <trkpt lat="45.09358" lon="5.45056">
        <ele>1034</ele>
        <time>2011-06-19T10:19:15Z</time>
      </trkpt>
      <trkpt lat="45.09407" lon="5.45018">
        <ele>1038</ele>
        <time>2011-06-19T10:19:46Z</time>
      </trkpt>
      <trkpt lat="45.09422" lon="5.45012">
        <ele>1039</ele>
        <time>2011-06-19T10:19:53Z</time>
      </trkpt>
      <trkpt lat="45.09427" lon="5.45015">
        <ele>1039</ele>
        <time>2011-06-19T10:19:56Z</time>
      </trkpt>
      <trkpt lat="45.09446" lon="5.4504">
        <ele>1044</ele>
        <time>2011-06-19T10:20:31Z</time>
      </trkpt>
      <trkpt lat="45.09464" lon="5.45062">
        <ele>1050</ele>
        <time>2011-06-19T10:21:07Z</time>
      </trkpt>
      <trkpt lat="45.09466" lon="5.45068">
        <ele>1052</ele>
        <time>2011-06-19T10:21:19Z</time>
      </trkpt>
      <trkpt lat="45.09507" lon="5.45119">
        <ele>1058</ele>
        <time>2011-06-19T10:21:50Z</time>
      </trkpt>
      <trkpt lat="45.09546" lon="5.45161">
        <ele>1063</ele>
        <time>2011-06-19T10:22:20Z</time>
      </trkpt>
      <trkpt lat="45.09577" lon="5.45169">
        <ele>1067</ele>
        <time>2011-06-19T10:22:47Z</time>
      </trkpt>
      <trkpt lat="45.0958" lon="5.45174">
        <ele>1067</ele>
        <time>2011-06-19T10:22:58Z</time>
      </trkpt>
      <trkpt lat="45.09583" lon="5.4517">
        <ele>1069</ele>
        <time>2011-06-19T10:23:31Z</time>
      </trkpt>
      <trkpt lat="45.09601" lon="5.45169">
        <ele>1071</ele>
        <time>2011-06-19T10:23:38Z</time>
      </trkpt>
      <trkpt lat="45.09678" lon="5.45193">
        <ele>1078</ele>
        <time>2011-06-19T10:24:09Z</time>
      </trkpt>
      <trkpt lat="45.09737" lon="5.45194">
        <ele>1081</ele>
        <time>2011-06-19T10:24:34Z</time>
      </trkpt>
      <trkpt lat="45.09793" lon="5.45254">
        <ele>1084</ele>
        <time>2011-06-19T10:24:58Z</time>
      </trkpt>
      <trkpt lat="45.09838" lon="5.45262">
        <ele>1085</ele>
        <time>2011-06-19T10:25:13Z</time>
      </trkpt>
      <trkpt lat="45.09867" lon="5.4531">
        <ele>1085</ele>
        <time>2011-06-19T10:25:24Z</time>
      </trkpt>
      <trkpt lat="45.09872" lon="5.45307">
        <ele>1085</ele>
        <time>2011-06-19T10:25:27Z</time>
      </trkpt>
      <trkpt lat="45.09882" lon="5.45301">
        <ele>1085</ele>
        <time>2011-06-19T10:25:34Z</time>
      </trkpt>
      <trkpt lat="45.09885" lon="5.45307">
        <ele>1085</ele>
        <time>2011-06-19T10:25:38Z</time>
      </trkpt>
      <trkpt lat="45.09923" lon="5.45354">
        <ele>1086</ele>
        <time>2011-06-19T10:26:10Z</time>
      </trkpt>
      <trkpt lat="45.09973" lon="5.45356">
        <ele>1088</ele>
        <time>2011-06-19T10:26:40Z</time>
      </trkpt>
      <trkpt lat="45.10023" lon="5.45351">
        <ele>1091</ele>
        <time>2011-06-19T10:27:11Z</time>
      </trkpt>
      <trkpt lat="45.10074" lon="5.4534">
        <ele>1096</ele>
        <time>2011-06-19T10:27:41Z</time>
      </trkpt>
      <trkpt lat="45.10134" lon="5.45321">
        <ele>1101</ele>
        <time>2011-06-19T10:28:12Z</time>
      </trkpt>
      <trkpt lat="45.10179" lon="5.45334">
        <ele>1104</ele>
        <time>2011-06-19T10:28:41Z</time>
      </trkpt>
      <trkpt lat="45.10214" lon="5.45385">
        <ele>1108</ele>
        <time>2011-06-19T10:29:09Z</time>
      </trkpt>
      <trkpt lat="45.10269" lon="5.45399">
        <ele>1112</ele>
        <time>2011-06-19T10:29:43Z</time>
      </trkpt>
      <trkpt lat="45.10316" lon="5.45402">
        <ele>1117</ele>
        <time>2011-06-19T10:30:12Z</time>
      </trkpt>
      <trkpt lat="45.10335" lon="5.45432">
        <ele>1119</ele>
        <time>2011-06-19T10:30:28Z</time>
      </trkpt>
      <trkpt lat="45.10345" lon="5.45433">
        <ele>1120</ele>
        <time>2011-06-19T10:30:34Z</time>
      </trkpt>
      <trkpt lat="45.10392" lon="5.45409">
        <ele>1125</ele>
        <time>2011-06-19T10:31:04Z</time>
      </trkpt>
      <trkpt lat="45.10434" lon="5.45407">
        <ele>1128</ele>
        <time>2011-06-19T10:31:29Z</time>
      </trkpt>
      <trkpt lat="45.10456" lon="5.45414">
        <ele>1130</ele>
        <time>2011-06-19T10:31:43Z</time>
      </trkpt>
      <trkpt lat="45.10468" lon="5.45409">
        <ele>1131</ele>
        <time>2011-06-19T10:31:49Z</time>
      </trkpt>
      <trkpt lat="45.10477" lon="5.45415">
        <ele>1132</ele>
        <time>2011-06-19T10:31:54Z</time>
      </trkpt>
      <trkpt lat="45.10483" lon="5.45425">
        <ele>1133</ele>
        <time>2011-06-19T10:32:07Z</time>
      </trkpt>
      <trkpt lat="45.10487" lon="5.45427">
        <ele>1133</ele>
        <time>2011-06-19T10:32:09Z</time>
      </trkpt>
      <trkpt lat="45.10491" lon="5.45431">
        <ele>1133</ele>
        <time>2011-06-19T10:32:22Z</time>
      </trkpt>
      <trkpt lat="45.10491" lon="5.45427">
        <ele>1134</ele>
        <time>2011-06-19T10:33:29Z</time>
      </trkpt>
      <trkpt lat="45.10487" lon="5.45426">
        <ele>1135</ele>
        <time>2011-06-19T10:33:56Z</time>
      </trkpt>
      <trkpt lat="45.10487" lon="5.45436">
        <ele>1136</ele>
        <time>2011-06-19T10:34:21Z</time>
      </trkpt>
      <trkpt lat="45.10482" lon="5.45436">
        <ele>1136</ele>
        <time>2011-06-19T10:34:49Z</time>
      </trkpt>
      <trkpt lat="45.10485" lon="5.45434">
        <ele>1136</ele>
        <time>2011-06-19T10:35:04Z</time>
      </trkpt>
      <trkpt lat="45.10486" lon="5.45428">
        <ele>1136</ele>
        <time>2011-06-19T10:35:20Z</time>
      </trkpt>
      <trkpt lat="45.10486" lon="5.4543">
        <ele>1136</ele>
        <time>2011-06-19T10:35:42Z</time>
      </trkpt>
      <trkpt lat="45.1049" lon="5.45428">
        <ele>1137</ele>
        <time>2011-06-19T10:36:28Z</time>
      </trkpt>
      <trkpt lat="45.10492" lon="5.45426">
        <ele>1136</ele>
        <time>2011-06-19T10:37:02Z</time>
      </trkpt>
      <trkpt lat="45.105" lon="5.45433">
        <ele>1136</ele>
        <time>2011-06-19T10:37:25Z</time>
      </trkpt>
      <trkpt lat="45.10507" lon="5.4544">
        <ele>1135</ele>
        <time>2011-06-19T10:37:35Z</time>
      </trkpt>
      <trkpt lat="45.1063" lon="5.45552">
        <ele>1133</ele>
        <time>2011-06-19T10:38:06Z</time>
      </trkpt>
      <trkpt lat="45.10641" lon="5.45558">
        <ele>1133</ele>
        <time>2011-06-19T10:38:08Z</time>
      </trkpt>
      <trkpt lat="45.10649" lon="5.45567">
        <ele>1132</ele>
        <time>2011-06-19T10:38:11Z</time>
      </trkpt>
      <trkpt lat="45.10693" lon="5.45611">
        <ele>1129</ele>
        <time>2011-06-19T10:38:20Z</time>
      </trkpt>
      <trkpt lat="45.1079" lon="5.45617">
        <ele>1126</ele>
        <time>2011-06-19T10:38:52Z</time>
      </trkpt>
      <trkpt lat="45.10811" lon="5.45635">
        <ele>1125</ele>
        <time>2011-06-19T10:39:08Z</time>
      </trkpt>
      <trkpt lat="45.1082" lon="5.45655">
        <ele>1125</ele>
        <time>2011-06-19T10:39:16Z</time>
      </trkpt>
      <trkpt lat="45.10842" lon="5.45654">
        <ele>1124</ele>
        <time>2011-06-19T10:39:22Z</time>
      </trkpt>
      <trkpt lat="45.11023" lon="5.45799">
        <ele>1117</ele>
        <time>2011-06-19T10:39:53Z</time>
      </trkpt>
      <trkpt lat="45.11201" lon="5.45951">
        <ele>1101</ele>
        <time>2011-06-19T10:40:24Z</time>
      </trkpt>
      <trkpt lat="45.11217" lon="5.45961">
        <ele>1098</ele>
        <time>2011-06-19T10:40:27Z</time>
      </trkpt>
      <trkpt lat="45.11231" lon="5.45957">
        <ele>1096</ele>
        <time>2011-06-19T10:40:30Z</time>
      </trkpt>
      <trkpt lat="45.11295" lon="5.45937">
        <ele>1093</ele>
        <time>2011-06-19T10:41:01Z</time>
      </trkpt>
      <trkpt lat="45.11378" lon="5.45953">
        <ele>1093</ele>
        <time>2011-06-19T10:41:32Z</time>
      </trkpt>
      <trkpt lat="45.11438" lon="5.45923">
        <ele>1094</ele>
        <time>2011-06-19T10:42:04Z</time>
      </trkpt>
      <trkpt lat="45.11474" lon="5.45901">
        <ele>1097</ele>
        <time>2011-06-19T10:42:38Z</time>
      </trkpt>
      <trkpt lat="45.11483" lon="5.45895">
        <ele>1098</ele>
        <time>2011-06-19T10:43:13Z</time>
      </trkpt>
      <trkpt lat="45.11495" lon="5.45879">
        <ele>1099</ele>
        <time>2011-06-19T10:43:24Z</time>
      </trkpt>
      <trkpt lat="45.11518" lon="5.45864">
        <ele>1103</ele>
        <time>2011-06-19T10:43:54Z</time>
      </trkpt>
      <trkpt lat="45.11556" lon="5.4583">
        <ele>1107</ele>
        <time>2011-06-19T10:44:28Z</time>
      </trkpt>
      <trkpt lat="45.1157" lon="5.45823">
        <ele>1111</ele>
        <time>2011-06-19T10:45:16Z</time>
      </trkpt>
      <trkpt lat="45.11575" lon="5.45826">
        <ele>1112</ele>
        <time>2011-06-19T10:45:21Z</time>
      </trkpt>
      <trkpt lat="45.11604" lon="5.4584">
        <ele>1116</ele>
        <time>2011-06-19T10:46:05Z</time>
      </trkpt>
      <trkpt lat="45.11609" lon="5.45835">
        <ele>1117</ele>
        <time>2011-06-19T10:46:25Z</time>
      </trkpt>
      <trkpt lat="45.11637" lon="5.45822">
        <ele>1120</ele>
        <time>2011-06-19T10:47:08Z</time>
      </trkpt>
      <trkpt lat="45.11662" lon="5.45815">
        <ele>1123</ele>
        <time>2011-06-19T10:47:42Z</time>
      </trkpt>
      <trkpt lat="45.11711" lon="5.45815">
        <ele>1126</ele>
        <time>2011-06-19T10:48:13Z</time>
      </trkpt>
      <trkpt lat="45.11756" lon="5.45808">
        <ele>1130</ele>
        <time>2011-06-19T10:48:43Z</time>
      </trkpt>
      <trkpt lat="45.11817" lon="5.45825">
        <ele>1135</ele>
        <time>2011-06-19T10:49:16Z</time>
      </trkpt>
      <trkpt lat="45.11821" lon="5.45821">
        <ele>1135</ele>
        <time>2011-06-19T10:49:19Z</time>
      </trkpt>
      <trkpt lat="45.11823" lon="5.45823">
        <ele>1136</ele>
        <time>2011-06-19T10:49:36Z</time>
      </trkpt>
      <trkpt lat="45.11826" lon="5.45819">
        <ele>1136</ele>
        <time>2011-06-19T10:50:00Z</time>
      </trkpt>
      <trkpt lat="45.11829" lon="5.45825">
        <ele>1136</ele>
        <time>2011-06-19T10:50:17Z</time>
      </trkpt>
      <trkpt lat="45.1183" lon="5.4583">
        <ele>1137</ele>
        <time>2011-06-19T10:52:45Z</time>
      </trkpt>
      <trkpt lat="45.11828" lon="5.45828">
        <ele>1137</ele>
        <time>2011-06-19T10:52:58Z</time>
      </trkpt>
      <trkpt lat="45.11831" lon="5.45823">
        <ele>1138</ele>
        <time>2011-06-19T10:53:05Z</time>
      </trkpt>
      <trkpt lat="45.11832" lon="5.45823">
        <ele>1139</ele>
        <time>2011-06-19T10:53:49Z</time>
      </trkpt>
      <trkpt lat="45.11833" lon="5.45825">
        <ele>1140</ele>
        <time>2011-06-19T10:55:06Z</time>
      </trkpt>
      <trkpt lat="45.11832" lon="5.45832">
        <ele>1140</ele>
        <time>2011-06-19T10:55:25Z</time>
      </trkpt>
      <trkpt lat="45.11837" lon="5.45834">
        <ele>1140</ele>
        <time>2011-06-19T10:55:30Z</time>
      </trkpt>
      <trkpt lat="45.11847" lon="5.45831">
        <ele>1141</ele>
        <time>2011-06-19T10:55:57Z</time>
      </trkpt>
      <trkpt lat="45.11873" lon="5.45827">
        <ele>1142</ele>
        <time>2011-06-19T10:56:14Z</time>
      </trkpt>
      <trkpt lat="45.11899" lon="5.45826">
        <ele>1147</ele>
        <time>2011-06-19T10:56:52Z</time>
      </trkpt>
      <trkpt lat="45.11904" lon="5.4583">
        <ele>1147</ele>
        <time>2011-06-19T10:56:57Z</time>
      </trkpt>
      <trkpt lat="45.11911" lon="5.45829">
        <ele>1149</ele>
        <time>2011-06-19T10:57:09Z</time>
      </trkpt>
      <trkpt lat="45.11916" lon="5.45831">
        <ele>1150</ele>
        <time>2011-06-19T10:57:11Z</time>
      </trkpt>
      <trkpt lat="45.1192" lon="5.45831">
        <ele>1151</ele>
        <time>2011-06-19T10:57:21Z</time>
      </trkpt>
      <trkpt lat="45.11962" lon="5.4584">
        <ele>1155</ele>
        <time>2011-06-19T10:57:51Z</time>
      </trkpt>
      <trkpt lat="45.12006" lon="5.4586">
        <ele>1160</ele>
        <time>2011-06-19T10:58:23Z</time>
      </trkpt>
      <trkpt lat="45.12074" lon="5.45926">
        <ele>1164</ele>
        <time>2011-06-19T10:58:55Z</time>
      </trkpt>
      <trkpt lat="45.12108" lon="5.45963">
        <ele>1164</ele>
        <time>2011-06-19T10:59:06Z</time>
      </trkpt>
      <trkpt lat="45.12117" lon="5.45961">
        <ele>1164</ele>
        <time>2011-06-19T10:59:09Z</time>
      </trkpt>
      <trkpt lat="45.12126" lon="5.45951">
        <ele>1164</ele>
        <time>2011-06-19T10:59:15Z</time>
      </trkpt>
      <trkpt lat="45.12159" lon="5.45884">
        <ele>1160</ele>
        <time>2011-06-19T10:59:45Z</time>
      </trkpt>
      <trkpt lat="45.1217" lon="5.45883">
        <ele>1160</ele>
        <time>2011-06-19T10:59:51Z</time>
      </trkpt>
      <trkpt lat="45.12225" lon="5.45922">
        <ele>1159</ele>
        <time>2011-06-19T11:00:24Z</time>
      </trkpt>
      <trkpt lat="45.12274" lon="5.46021">
        <ele>1159</ele>
        <time>2011-06-19T11:00:54Z</time>
      </trkpt>
      <trkpt lat="45.12316" lon="5.46154">
        <ele>1159</ele>
        <time>2011-06-19T11:01:13Z</time>
      </trkpt>
      <trkpt lat="45.12264" lon="5.46293">
        <ele>1154</ele>
        <time>2011-06-19T11:01:33Z</time>
      </trkpt>
      <trkpt lat="45.12262" lon="5.46298">
        <ele>1154</ele>
        <time>2011-06-19T11:01:48Z</time>
      </trkpt>
      <trkpt lat="45.12259" lon="5.46306">
        <ele>1150</ele>
        <time>2011-06-19T11:03:19Z</time>
      </trkpt>
      <trkpt lat="45.12251" lon="5.46326">
        <ele>1147</ele>
        <time>2011-06-19T11:03:25Z</time>
      </trkpt>
      <trkpt lat="45.12245" lon="5.46333">
        <ele>1140</ele>
        <time>2011-06-19T11:03:27Z</time>
      </trkpt>
      <trkpt lat="45.12228" lon="5.46343">
        <ele>1138</ele>
        <time>2011-06-19T11:03:33Z</time>
      </trkpt>
      <trkpt lat="45.12225" lon="5.46352">
        <ele>1138</ele>
        <time>2011-06-19T11:03:35Z</time>
      </trkpt>
      <trkpt lat="45.12225" lon="5.46363">
        <ele>1137</ele>
        <time>2011-06-19T11:03:37Z</time>
      </trkpt>
      <trkpt lat="45.12231" lon="5.46376">
        <ele>1136</ele>
        <time>2011-06-19T11:03:41Z</time>
      </trkpt>
      <trkpt lat="45.12277" lon="5.46481">
        <ele>1134</ele>
        <time>2011-06-19T11:04:03Z</time>
      </trkpt>
      <trkpt lat="45.12312" lon="5.46494">
        <ele>1134</ele>
        <time>2011-06-19T11:04:14Z</time>
      </trkpt>
      <trkpt lat="45.1233" lon="5.46487">
        <ele>1134</ele>
        <time>2011-06-19T11:04:24Z</time>
      </trkpt>
      <trkpt lat="45.1237" lon="5.4644">
        <ele>1134</ele>
        <time>2011-06-19T11:04:54Z</time>
      </trkpt>
      <trkpt lat="45.12398" lon="5.46418">
        <ele>1134</ele>
        <time>2011-06-19T11:05:26Z</time>
      </trkpt>
      <trkpt lat="45.12402" lon="5.46421">
        <ele>1134</ele>
        <time>2011-06-19T11:05:37Z</time>
      </trkpt>
      <trkpt lat="45.12409" lon="5.46421">
        <ele>1135</ele>
        <time>2011-06-19T11:05:48Z</time>
      </trkpt>
      <trkpt lat="45.12426" lon="5.46394">
        <ele>1137</ele>
        <time>2011-06-19T11:06:20Z</time>
      </trkpt>
      <trkpt lat="45.12471" lon="5.46356">
        <ele>1140</ele>
        <time>2011-06-19T11:06:51Z</time>
      </trkpt>
      <trkpt lat="45.12476" lon="5.46356">
        <ele>1140</ele>
        <time>2011-06-19T11:06:59Z</time>
      </trkpt>
      <trkpt lat="45.1248" lon="5.46359">
        <ele>1141</ele>
        <time>2011-06-19T11:07:04Z</time>
      </trkpt>
      <trkpt lat="45.12497" lon="5.46354">
        <ele>1142</ele>
        <time>2011-06-19T11:07:37Z</time>
      </trkpt>
      <trkpt lat="45.12523" lon="5.46329">
        <ele>1143</ele>
        <time>2011-06-19T11:08:11Z</time>
      </trkpt>
      <trkpt lat="45.12527" lon="5.46326">
        <ele>1144</ele>
        <time>2011-06-19T11:08:18Z</time>
      </trkpt>
      <trkpt lat="45.12529" lon="5.46317">
        <ele>1145</ele>
        <time>2011-06-19T11:08:32Z</time>
      </trkpt>
      <trkpt lat="45.12528" lon="5.46309">
        <ele>1146</ele>
        <time>2011-06-19T11:08:40Z</time>
      </trkpt>
      <trkpt lat="45.12531" lon="5.46303">
        <ele>1146</ele>
        <time>2011-06-19T11:08:52Z</time>
      </trkpt>
      <trkpt lat="45.12534" lon="5.46297">
        <ele>1147</ele>
        <time>2011-06-19T11:08:55Z</time>
      </trkpt>
      <trkpt lat="45.12535" lon="5.4629">
        <ele>1147</ele>
        <time>2011-06-19T11:09:03Z</time>
      </trkpt>
      <trkpt lat="45.1254" lon="5.46291">
        <ele>1147</ele>
        <time>2011-06-19T11:09:31Z</time>
      </trkpt>
      <trkpt lat="45.12538" lon="5.46292">
        <ele>1150</ele>
        <time>2011-06-19T11:10:25Z</time>
      </trkpt>
      <trkpt lat="45.12541" lon="5.46297">
        <ele>1151</ele>
        <time>2011-06-19T11:10:47Z</time>
      </trkpt>
      <trkpt lat="45.12547" lon="5.46293">
        <ele>1153</ele>
        <time>2011-06-19T11:11:02Z</time>
      </trkpt>
      <trkpt lat="45.12586" lon="5.46274">
        <ele>1158</ele>
        <time>2011-06-19T11:11:25Z</time>
      </trkpt>
      <trkpt lat="45.12625" lon="5.46287">
        <ele>1161</ele>
        <time>2011-06-19T11:11:40Z</time>
      </trkpt>
      <trkpt lat="45.12652" lon="5.46363">
        <ele>1165</ele>
        <time>2011-06-19T11:12:04Z</time>
      </trkpt>
      <trkpt lat="45.1266" lon="5.46382">
        <ele>1166</ele>
        <time>2011-06-19T11:12:13Z</time>
      </trkpt>
      <trkpt lat="45.12665" lon="5.46386">
        <ele>1167</ele>
        <time>2011-06-19T11:12:16Z</time>
      </trkpt>
      <trkpt lat="45.1271" lon="5.46388">
        <ele>1170</ele>
        <time>2011-06-19T11:12:48Z</time>
      </trkpt>
      <trkpt lat="45.12758" lon="5.46445">
        <ele>1172</ele>
        <time>2011-06-19T11:13:11Z</time>
      </trkpt>
      <trkpt lat="45.12763" lon="5.46484">
        <ele>1173</ele>
        <time>2011-06-19T11:13:20Z</time>
      </trkpt>
      <trkpt lat="45.12769" lon="5.46505">
        <ele>1174</ele>
        <time>2011-06-19T11:13:24Z</time>
      </trkpt>
      <trkpt lat="45.12796" lon="5.4655">
        <ele>1175</ele>
        <time>2011-06-19T11:13:39Z</time>
      </trkpt>
      <trkpt lat="45.128" lon="5.46547">
        <ele>1176</ele>
        <time>2011-06-19T11:13:41Z</time>
      </trkpt>
      <trkpt lat="45.12805" lon="5.46542">
        <ele>1176</ele>
        <time>2011-06-19T11:13:43Z</time>
      </trkpt>
      <trkpt lat="45.12811" lon="5.46534">
        <ele>1177</ele>
        <time>2011-06-19T11:13:45Z</time>
      </trkpt>
      <trkpt lat="45.12855" lon="5.46495">
        <ele>1179</ele>
        <time>2011-06-19T11:14:09Z</time>
      </trkpt>
      <trkpt lat="45.12876" lon="5.46499">
        <ele>1180</ele>
        <time>2011-06-19T11:14:22Z</time>
      </trkpt>
      <trkpt lat="45.12884" lon="5.46507">
        <ele>1180</ele>
        <time>2011-06-19T11:14:29Z</time>
      </trkpt>
      <trkpt lat="45.12899" lon="5.46576">
        <ele>1182</ele>
        <time>2011-06-19T11:14:48Z</time>
      </trkpt>
      <trkpt lat="45.12901" lon="5.46602">
        <ele>1183</ele>
        <time>2011-06-19T11:15:01Z</time>
      </trkpt>
      <trkpt lat="45.12916" lon="5.46628">
        <ele>1186</ele>
        <time>2011-06-19T11:15:23Z</time>
      </trkpt>
      <trkpt lat="45.12957" lon="5.46647">
        <ele>1187</ele>
        <time>2011-06-19T11:15:47Z</time>
      </trkpt>
      <trkpt lat="45.13003" lon="5.46654">
        <ele>1189</ele>
        <time>2011-06-19T11:16:13Z</time>
      </trkpt>
      <trkpt lat="45.13012" lon="5.46647">
        <ele>1189</ele>
        <time>2011-06-19T11:16:17Z</time>
      </trkpt>
      <trkpt lat="45.13042" lon="5.46628">
        <ele>1196</ele>
        <time>2011-06-19T11:16:24Z</time>
      </trkpt>
      <trkpt lat="45.13113" lon="5.46617">
        <ele>1197</ele>
        <time>2011-06-19T11:16:57Z</time>
      </trkpt>
      <trkpt lat="45.13127" lon="5.46617">
        <ele>1198</ele>
        <time>2011-06-19T11:17:07Z</time>
      </trkpt>
      <trkpt lat="45.13134" lon="5.46623">
        <ele>1199</ele>
        <time>2011-06-19T11:17:18Z</time>
      </trkpt>
      <trkpt lat="45.13132" lon="5.4663">
        <ele>1199</ele>
        <time>2011-06-19T11:17:22Z</time>
      </trkpt>
      <trkpt lat="45.13139" lon="5.46633">
        <ele>1200</ele>
        <time>2011-06-19T11:17:30Z</time>
      </trkpt>
      <trkpt lat="45.13144" lon="5.46635">
        <ele>1200</ele>
        <time>2011-06-19T11:17:33Z</time>
      </trkpt>
      <trkpt lat="45.13194" lon="5.46706">
        <ele>1205</ele>
        <time>2011-06-19T11:18:05Z</time>
      </trkpt>
      <trkpt lat="45.13249" lon="5.46753">
        <ele>1210</ele>
        <time>2011-06-19T11:18:36Z</time>
      </trkpt>
      <trkpt lat="45.13269" lon="5.46764">
        <ele>1209</ele>
        <time>2011-06-19T11:18:54Z</time>
      </trkpt>
      <trkpt lat="45.13271" lon="5.4677">
        <ele>1208</ele>
        <time>2011-06-19T11:19:02Z</time>
      </trkpt>
      <trkpt lat="45.13276" lon="5.46788">
        <ele>1207</ele>
        <time>2011-06-19T11:19:07Z</time>
      </trkpt>
      <trkpt lat="45.13278" lon="5.46793">
        <ele>1205</ele>
        <time>2011-06-19T11:19:08Z</time>
      </trkpt>
      <trkpt lat="45.13319" lon="5.46827">
        <ele>1204</ele>
        <time>2011-06-19T11:19:34Z</time>
      </trkpt>
      <trkpt lat="45.13347" lon="5.46826">
        <ele>1203</ele>
        <time>2011-06-19T11:19:46Z</time>
      </trkpt>
      <trkpt lat="45.13367" lon="5.46814">
        <ele>1200</ele>
        <time>2011-06-19T11:19:52Z</time>
      </trkpt>
      <trkpt lat="45.13394" lon="5.46819">
        <ele>1200</ele>
        <time>2011-06-19T11:20:01Z</time>
      </trkpt>
      <trkpt lat="45.13466" lon="5.469">
        <ele>1200</ele>
        <time>2011-06-19T11:20:32Z</time>
      </trkpt>
      <trkpt lat="45.13521" lon="5.46948">
        <ele>1200</ele>
        <time>2011-06-19T11:21:02Z</time>
      </trkpt>
      <trkpt lat="45.13598" lon="5.47012">
        <ele>1199</ele>
        <time>2011-06-19T11:21:31Z</time>
      </trkpt>
      <trkpt lat="45.13613" lon="5.47053">
        <ele>1201</ele>
        <time>2011-06-19T11:21:46Z</time>
      </trkpt>
      <trkpt lat="45.13622" lon="5.47054">
        <ele>1201</ele>
        <time>2011-06-19T11:22:03Z</time>
      </trkpt>
      <trkpt lat="45.13628" lon="5.47057">
        <ele>1201</ele>
        <time>2011-06-19T11:22:10Z</time>
      </trkpt>
      <trkpt lat="45.13624" lon="5.47062">
        <ele>1202</ele>
        <time>2011-06-19T11:22:19Z</time>
      </trkpt>
      <trkpt lat="45.13618" lon="5.47065">
        <ele>1202</ele>
        <time>2011-06-19T11:22:22Z</time>
      </trkpt>
      <trkpt lat="45.13612" lon="5.47065">
        <ele>1201</ele>
        <time>2011-06-19T11:22:31Z</time>
      </trkpt>
      <trkpt lat="45.13608" lon="5.47067">
        <ele>1198</ele>
        <time>2011-06-19T11:23:22Z</time>
      </trkpt>
      <trkpt lat="45.136" lon="5.47059">
        <ele>1197</ele>
        <time>2011-06-19T11:24:20Z</time>
      </trkpt>
      <trkpt lat="45.13598" lon="5.4704">
        <ele>1196</ele>
        <time>2011-06-19T11:24:37Z</time>
      </trkpt>
      <trkpt lat="45.136" lon="5.47017">
        <ele>1196</ele>
        <time>2011-06-19T11:24:53Z</time>
      </trkpt>
      <trkpt lat="45.13605" lon="5.47015">
        <ele>1195</ele>
        <time>2011-06-19T11:25:03Z</time>
      </trkpt>
      <trkpt lat="45.13607" lon="5.4702">
        <ele>1195</ele>
        <time>2011-06-19T11:25:10Z</time>
      </trkpt>
      <trkpt lat="45.1361" lon="5.47027">
        <ele>1194</ele>
        <time>2011-06-19T11:25:20Z</time>
      </trkpt>
      <trkpt lat="45.13615" lon="5.47048">
        <ele>1194</ele>
        <time>2011-06-19T11:25:29Z</time>
      </trkpt>
      <trkpt lat="45.13613" lon="5.47057">
        <ele>1194</ele>
        <time>2011-06-19T11:25:33Z</time>
      </trkpt>
      <trkpt lat="45.13611" lon="5.47062">
        <ele>1193</ele>
        <time>2011-06-19T11:26:00Z</time>
      </trkpt>
      <trkpt lat="45.13608" lon="5.47056">
        <ele>1193</ele>
        <time>2011-06-19T11:26:01Z</time>
      </trkpt>
      <trkpt lat="45.13609" lon="5.4705">
        <ele>1193</ele>
        <time>2011-06-19T11:26:08Z</time>
      </trkpt>
      <trkpt lat="45.13618" lon="5.47047">
        <ele>1193</ele>
        <time>2011-06-19T11:26:18Z</time>
      </trkpt>
      <trkpt lat="45.13627" lon="5.47058">
        <ele>1193</ele>
        <time>2011-06-19T11:26:22Z</time>
      </trkpt>
      <trkpt lat="45.13629" lon="5.47061">
        <ele>1193</ele>
        <time>2011-06-19T11:26:38Z</time>
      </trkpt>
      <trkpt lat="45.13634" lon="5.47063">
        <ele>1192</ele>
        <time>2011-06-19T11:26:50Z</time>
      </trkpt>
      <trkpt lat="45.13674" lon="5.47077">
        <ele>1193</ele>
        <time>2011-06-19T11:27:21Z</time>
      </trkpt>
      <trkpt lat="45.13699" lon="5.47062">
        <ele>1195</ele>
        <time>2011-06-19T11:27:37Z</time>
      </trkpt>
      <trkpt lat="45.1376" lon="5.47023">
        <ele>1203</ele>
        <time>2011-06-19T11:28:08Z</time>
      </trkpt>
      <trkpt lat="45.13763" lon="5.4701">
        <ele>1204</ele>
        <time>2011-06-19T11:28:16Z</time>
      </trkpt>
      <trkpt lat="45.13758" lon="5.46987">
        <ele>1206</ele>
        <time>2011-06-19T11:28:26Z</time>
      </trkpt>
      <trkpt lat="45.1375" lon="5.46971">
        <ele>1206</ele>
        <time>2011-06-19T11:28:32Z</time>
      </trkpt>
      <trkpt lat="45.13719" lon="5.4693">
        <ele>1209</ele>
        <time>2011-06-19T11:28:51Z</time>
      </trkpt>
      <trkpt lat="45.13711" lon="5.46827">
        <ele>1214</ele>
        <time>2011-06-19T11:29:24Z</time>
      </trkpt>
      <trkpt lat="45.13709" lon="5.46813">
        <ele>1215</ele>
        <time>2011-06-19T11:29:30Z</time>
      </trkpt>
      <trkpt lat="45.13711" lon="5.46806">
        <ele>1216</ele>
        <time>2011-06-19T11:29:34Z</time>
      </trkpt>
      <trkpt lat="45.13721" lon="5.46791">
        <ele>1218</ele>
        <time>2011-06-19T11:29:47Z</time>
      </trkpt>
      <trkpt lat="45.13724" lon="5.46796">
        <ele>1218</ele>
        <time>2011-06-19T11:30:03Z</time>
      </trkpt>
      <trkpt lat="45.13722" lon="5.46809">
        <ele>1219</ele>
        <time>2011-06-19T11:30:28Z</time>
      </trkpt>
      <trkpt lat="45.13717" lon="5.46806">
        <ele>1219</ele>
        <time>2011-06-19T11:30:33Z</time>
      </trkpt>
      <trkpt lat="45.13719" lon="5.468">
        <ele>1219</ele>
        <time>2011-06-19T11:30:47Z</time>
      </trkpt>
      <trkpt lat="45.13724" lon="5.46801">
        <ele>1219</ele>
        <time>2011-06-19T11:30:52Z</time>
      </trkpt>
      <trkpt lat="45.13724" lon="5.4679">
        <ele>1220</ele>
        <time>2011-06-19T11:30:59Z</time>
      </trkpt>
      <trkpt lat="45.13728" lon="5.46786">
        <ele>1220</ele>
        <time>2011-06-19T11:31:01Z</time>
      </trkpt>
      <trkpt lat="45.1377" lon="5.46767">
        <ele>1223</ele>
        <time>2011-06-19T11:31:20Z</time>
      </trkpt>
      <trkpt lat="45.13826" lon="5.46798">
        <ele>1229</ele>
        <time>2011-06-19T11:31:52Z</time>
      </trkpt>
      <trkpt lat="45.13891" lon="5.46849">
        <ele>1234</ele>
        <time>2011-06-19T11:32:26Z</time>
      </trkpt>
      <trkpt lat="45.13945" lon="5.46857">
        <ele>1240</ele>
        <time>2011-06-19T11:32:58Z</time>
      </trkpt>
      <trkpt lat="45.13995" lon="5.46869">
        <ele>1244</ele>
        <time>2011-06-19T11:33:30Z</time>
      </trkpt>
      <trkpt lat="45.14047" lon="5.46892">
        <ele>1249</ele>
        <time>2011-06-19T11:34:01Z</time>
      </trkpt>
      <trkpt lat="45.14091" lon="5.46902">
        <ele>1253</ele>
        <time>2011-06-19T11:34:32Z</time>
      </trkpt>
      <trkpt lat="45.14103" lon="5.46918">
        <ele>1255</ele>
        <time>2011-06-19T11:34:41Z</time>
      </trkpt>
      <trkpt lat="45.14116" lon="5.46952">
        <ele>1256</ele>
        <time>2011-06-19T11:34:48Z</time>
      </trkpt>
      <trkpt lat="45.14128" lon="5.4696">
        <ele>1256</ele>
        <time>2011-06-19T11:34:52Z</time>
      </trkpt>
      <trkpt lat="45.14165" lon="5.46965">
        <ele>1262</ele>
        <time>2011-06-19T11:35:24Z</time>
      </trkpt>
      <trkpt lat="45.14195" lon="5.46946">
        <ele>1266</ele>
        <time>2011-06-19T11:35:48Z</time>
      </trkpt>
      <trkpt lat="45.14237" lon="5.46952">
        <ele>1269</ele>
        <time>2011-06-19T11:36:08Z</time>
      </trkpt>
      <trkpt lat="45.14282" lon="5.46976">
        <ele>1273</ele>
        <time>2011-06-19T11:36:41Z</time>
      </trkpt>
      <trkpt lat="45.1433" lon="5.46984">
        <ele>1276</ele>
        <time>2011-06-19T11:37:08Z</time>
      </trkpt>
      <trkpt lat="45.14335" lon="5.46992">
        <ele>1277</ele>
        <time>2011-06-19T11:37:30Z</time>
      </trkpt>
      <trkpt lat="45.14337" lon="5.46985">
        <ele>1277</ele>
        <time>2011-06-19T11:37:35Z</time>
      </trkpt>
      <trkpt lat="45.14341" lon="5.46982">
        <ele>1277</ele>
        <time>2011-06-19T11:37:45Z</time>
      </trkpt>
      <trkpt lat="45.14368" lon="5.46981">
        <ele>1280</ele>
        <time>2011-06-19T11:38:23Z</time>
      </trkpt>
      <trkpt lat="45.14396" lon="5.46985">
        <ele>1284</ele>
        <time>2011-06-19T11:38:59Z</time>
      </trkpt>
      <trkpt lat="45.14411" lon="5.46981">
        <ele>1287</ele>
        <time>2011-06-19T11:39:23Z</time>
      </trkpt>
      <trkpt lat="45.14419" lon="5.46985">
        <ele>1288</ele>
        <time>2011-06-19T11:39:33Z</time>
      </trkpt>
      <trkpt lat="45.14454" lon="5.4698">
        <ele>1295</ele>
        <time>2011-06-19T11:40:03Z</time>
      </trkpt>
      <trkpt lat="45.14504" lon="5.46989">
        <ele>1303</ele>
        <time>2011-06-19T11:40:34Z</time>
      </trkpt>
      <trkpt lat="45.14554" lon="5.46993">
        <ele>1310</ele>
        <time>2011-06-19T11:41:08Z</time>
      </trkpt>
      <trkpt lat="45.14564" lon="5.46998">
        <ele>1311</ele>
        <time>2011-06-19T11:41:13Z</time>
      </trkpt>
      <trkpt lat="45.14574" lon="5.47001">
        <ele>1312</ele>
        <time>2011-06-19T11:41:23Z</time>
      </trkpt>
      <trkpt lat="45.14583" lon="5.47002">
        <ele>1312</ele>
        <time>2011-06-19T11:41:31Z</time>
      </trkpt>
      <trkpt lat="45.14592" lon="5.47">
        <ele>1313</ele>
        <time>2011-06-19T11:41:48Z</time>
      </trkpt>
      <trkpt lat="45.14597" lon="5.47006">
        <ele>1314</ele>
        <time>2011-06-19T11:41:57Z</time>
      </trkpt>
      <trkpt lat="45.14606" lon="5.47002">
        <ele>1316</ele>
        <time>2011-06-19T11:42:11Z</time>
      </trkpt>
      <trkpt lat="45.14609" lon="5.46996">
        <ele>1316</ele>
        <time>2011-06-19T11:42:16Z</time>
      </trkpt>
      <trkpt lat="45.14617" lon="5.46997">
        <ele>1317</ele>
        <time>2011-06-19T11:42:27Z</time>
      </trkpt>
      <trkpt lat="45.14621" lon="5.46999">
        <ele>1317</ele>
        <time>2011-06-19T11:42:30Z</time>
      </trkpt>
      <trkpt lat="45.1466" lon="5.46998">
        <ele>1318</ele>
        <time>2011-06-19T11:46:50Z</time>
      </trkpt>
      <trkpt lat="45.14657" lon="5.47004">
        <ele>1318</ele>
        <time>2011-06-19T11:47:21Z</time>
      </trkpt>
      <trkpt lat="45.14652" lon="5.47004">
        <ele>1317</ele>
        <time>2011-06-19T11:47:30Z</time>
      </trkpt>
      <trkpt lat="45.14652" lon="5.47004">
        <ele>1317</ele>
        <time>2011-06-19T11:48:12Z</time>
      </trkpt>
      <trkpt lat="45.14651" lon="5.46997">
        <ele>1317</ele>
        <time>2011-06-19T11:48:17Z</time>
      </trkpt>
      <trkpt lat="45.14654" lon="5.47001">
        <ele>1319</ele>
        <time>2011-06-19T11:49:20Z</time>
      </trkpt>
      <trkpt lat="45.1465" lon="5.47005">
        <ele>1319</ele>
        <time>2011-06-19T11:49:45Z</time>
      </trkpt>
      <trkpt lat="45.14654" lon="5.47009">
        <ele>1319</ele>
        <time>2011-06-19T11:49:55Z</time>
      </trkpt>
      <trkpt lat="45.14658" lon="5.47012">
        <ele>1320</ele>
        <time>2011-06-19T11:51:19Z</time>
      </trkpt>
      <trkpt lat="45.14654" lon="5.47016">
        <ele>1320</ele>
        <time>2011-06-19T11:51:33Z</time>
      </trkpt>
      <trkpt lat="45.1465" lon="5.4702">
        <ele>1321</ele>
        <time>2011-06-19T11:51:50Z</time>
      </trkpt>
      <trkpt lat="45.14653" lon="5.47019">
        <ele>1322</ele>
        <time>2011-06-19T11:53:09Z</time>
      </trkpt>
      <trkpt lat="45.14654" lon="5.47013">
        <ele>1322</ele>
        <time>2011-06-19T11:53:41Z</time>
      </trkpt>
      <trkpt lat="45.14655" lon="5.47006">
        <ele>1322</ele>
        <time>2011-06-19T11:54:28Z</time>
      </trkpt>
      <trkpt lat="45.14658" lon="5.47001">
        <ele>1322</ele>
        <time>2011-06-19T11:54:35Z</time>
      </trkpt>
      <trkpt lat="45.14673" lon="5.46993">
        <ele>1323</ele>
        <time>2011-06-19T11:55:08Z</time>
      </trkpt>
      <trkpt lat="45.14677" lon="5.4699">
        <ele>1323</ele>
        <time>2011-06-19T11:55:10Z</time>
      </trkpt>
      <trkpt lat="45.14702" lon="5.4698">
        <ele>1326</ele>
        <time>2011-06-19T11:55:42Z</time>
      </trkpt>
      <trkpt lat="45.14713" lon="5.46982">
        <ele>1326</ele>
        <time>2011-06-19T11:55:49Z</time>
      </trkpt>
      <trkpt lat="45.14727" lon="5.46977">
        <ele>1328</ele>
        <time>2011-06-19T11:56:06Z</time>
      </trkpt>
      <trkpt lat="45.14732" lon="5.46976">
        <ele>1329</ele>
        <time>2011-06-19T11:56:07Z</time>
      </trkpt>
      <trkpt lat="45.14737" lon="5.46974">
        <ele>1329</ele>
        <time>2011-06-19T11:56:13Z</time>
      </trkpt>
      <trkpt lat="45.14746" lon="5.46984">
        <ele>1331</ele>
        <time>2011-06-19T11:56:24Z</time>
      </trkpt>
      <trkpt lat="45.14773" lon="5.47014">
        <ele>1332</ele>
        <time>2011-06-19T11:56:34Z</time>
      </trkpt>
      <trkpt lat="45.14814" lon="5.47009">
        <ele>1334</ele>
        <time>2011-06-19T11:56:57Z</time>
      </trkpt>
      <trkpt lat="45.14827" lon="5.46993">
        <ele>1335</ele>
        <time>2011-06-19T11:57:03Z</time>
      </trkpt>
      <trkpt lat="45.14838" lon="5.46992">
        <ele>1336</ele>
        <time>2011-06-19T11:57:09Z</time>
      </trkpt>
      <trkpt lat="45.1484" lon="5.46992">
        <ele>1337</ele>
        <time>2011-06-19T11:57:15Z</time>
      </trkpt>
      <trkpt lat="45.1484" lon="5.46985">
        <ele>1341</ele>
        <time>2011-06-19T11:57:30Z</time>
      </trkpt>
      <trkpt lat="45.14834" lon="5.46978">
        <ele>1342</ele>
        <time>2011-06-19T11:57:38Z</time>
      </trkpt>
      <trkpt lat="45.14814" lon="5.46933">
        <ele>1350</ele>
        <time>2011-06-19T11:58:18Z</time>
      </trkpt>
      <trkpt lat="45.14799" lon="5.46903">
        <ele>1354</ele>
        <time>2011-06-19T11:58:48Z</time>
      </trkpt>
      <trkpt lat="45.14788" lon="5.46896">
        <ele>1356</ele>
        <time>2011-06-19T11:59:00Z</time>
      </trkpt>
      <trkpt lat="45.14766" lon="5.4686">
        <ele>1362</ele>
        <time>2011-06-19T11:59:32Z</time>
      </trkpt>
      <trkpt lat="45.14761" lon="5.46857">
        <ele>1363</ele>
        <time>2011-06-19T11:59:35Z</time>
      </trkpt>
      <trkpt lat="45.14729" lon="5.46829">
        <ele>1370</ele>
        <time>2011-06-19T12:00:06Z</time>
      </trkpt>
      <trkpt lat="45.14725" lon="5.46826">
        <ele>1371</ele>
        <time>2011-06-19T12:00:15Z</time>
      </trkpt>
      <trkpt lat="45.14721" lon="5.46822">
        <ele>1371</ele>
        <time>2011-06-19T12:00:20Z</time>
      </trkpt>
      <trkpt lat="45.14709" lon="5.46815">
        <ele>1374</ele>
        <time>2011-06-19T12:00:49Z</time>
      </trkpt>
      <trkpt lat="45.1469" lon="5.46782">
        <ele>1376</ele>
        <time>2011-06-19T12:01:24Z</time>
      </trkpt>
      <trkpt lat="45.14686" lon="5.46745">
        <ele>1380</ele>
        <time>2011-06-19T12:01:56Z</time>
      </trkpt>
      <trkpt lat="45.14657" lon="5.46669">
        <ele>1386</ele>
        <time>2011-06-19T12:02:28Z</time>
      </trkpt>
      <trkpt lat="45.14618" lon="5.46635">
        <ele>1391</ele>
        <time>2011-06-19T12:02:59Z</time>
      </trkpt>
      <trkpt lat="45.14608" lon="5.46631">
        <ele>1392</ele>
        <time>2011-06-19T12:03:05Z</time>
      </trkpt>
      <trkpt lat="45.14605" lon="5.4662">
        <ele>1393</ele>
        <time>2011-06-19T12:03:10Z</time>
      </trkpt>
      <trkpt lat="45.14604" lon="5.46588">
        <ele>1394</ele>
        <time>2011-06-19T12:03:27Z</time>
      </trkpt>
      <trkpt lat="45.14603" lon="5.46545">
        <ele>1394</ele>
        <time>2011-06-19T12:03:41Z</time>
      </trkpt>
      <trkpt lat="45.14598" lon="5.46536">
        <ele>1393</ele>
        <time>2011-06-19T12:03:44Z</time>
      </trkpt>
      <trkpt lat="45.14593" lon="5.4653">
        <ele>1393</ele>
        <time>2011-06-19T12:03:46Z</time>
      </trkpt>
      <trkpt lat="45.14592" lon="5.46524">
        <ele>1393</ele>
        <time>2011-06-19T12:03:50Z</time>
      </trkpt>
      <trkpt lat="45.14582" lon="5.46472">
        <ele>1391</ele>
        <time>2011-06-19T12:04:16Z</time>
      </trkpt>
      <trkpt lat="45.14561" lon="5.46422">
        <ele>1390</ele>
        <time>2011-06-19T12:04:33Z</time>
      </trkpt>
      <trkpt lat="45.14565" lon="5.46399">
        <ele>1390</ele>
        <time>2011-06-19T12:04:40Z</time>
      </trkpt>
      <trkpt lat="45.14563" lon="5.46378">
        <ele>1388</ele>
        <time>2011-06-19T12:05:05Z</time>
      </trkpt>
      <trkpt lat="45.14559" lon="5.46375">
        <ele>1387</ele>
        <time>2011-06-19T12:05:12Z</time>
      </trkpt>
      <trkpt lat="45.14558" lon="5.46366">
        <ele>1387</ele>
        <time>2011-06-19T12:05:20Z</time>
      </trkpt>
      <trkpt lat="45.14562" lon="5.46363">
        <ele>1387</ele>
        <time>2011-06-19T12:05:27Z</time>
      </trkpt>
      <trkpt lat="45.14563" lon="5.46359">
        <ele>1383</ele>
        <time>2011-06-19T12:05:56Z</time>
      </trkpt>
      <trkpt lat="45.14563" lon="5.4633">
        <ele>1381</ele>
        <time>2011-06-19T12:06:04Z</time>
      </trkpt>
      <trkpt lat="45.14563" lon="5.46327">
        <ele>1376</ele>
        <time>2011-06-19T12:07:35Z</time>
      </trkpt>
      <trkpt lat="45.14562" lon="5.46324">
        <ele>1375</ele>
        <time>2011-06-19T12:08:09Z</time>
      </trkpt>
      <trkpt lat="45.14562" lon="5.46317">
        <ele>1375</ele>
        <time>2011-06-19T12:08:15Z</time>
      </trkpt>
      <trkpt lat="45.1456" lon="5.46311">
        <ele>1374</ele>
        <time>2011-06-19T12:08:46Z</time>
      </trkpt>
      <trkpt lat="45.14557" lon="5.46306">
        <ele>1374</ele>
        <time>2011-06-19T12:08:53Z</time>
      </trkpt>
      <trkpt lat="45.14562" lon="5.46303">
        <ele>1374</ele>
        <time>2011-06-19T12:09:03Z</time>
      </trkpt>
      <trkpt lat="45.14557" lon="5.46316">
        <ele>1373</ele>
        <time>2011-06-19T12:09:16Z</time>
      </trkpt>
      <trkpt lat="45.14557" lon="5.46322">
        <ele>1373</ele>
        <time>2011-06-19T12:09:26Z</time>
      </trkpt>
      <trkpt lat="45.14562" lon="5.46329">
        <ele>1372</ele>
        <time>2011-06-19T12:09:54Z</time>
      </trkpt>
      <trkpt lat="45.14564" lon="5.46322">
        <ele>1372</ele>
        <time>2011-06-19T12:10:05Z</time>
      </trkpt>
      <trkpt lat="45.14561" lon="5.46317">
        <ele>1372</ele>
        <time>2011-06-19T12:10:08Z</time>
      </trkpt>
      <trkpt lat="45.14558" lon="5.46324">
        <ele>1371</ele>
        <time>2011-06-19T12:10:25Z</time>
      </trkpt>
      <trkpt lat="45.1455" lon="5.46327">
        <ele>1369</ele>
        <time>2011-06-19T12:10:35Z</time>
      </trkpt>
      <trkpt lat="45.1453" lon="5.46325">
        <ele>1368</ele>
        <time>2011-06-19T12:10:53Z</time>
      </trkpt>
      <trkpt lat="45.14508" lon="5.46309">
        <ele>1368</ele>
        <time>2011-06-19T12:11:12Z</time>
      </trkpt>
      <trkpt lat="45.1449" lon="5.46307">
        <ele>1369</ele>
        <time>2011-06-19T12:11:31Z</time>
      </trkpt>
      <trkpt lat="45.14485" lon="5.46303">
        <ele>1369</ele>
        <time>2011-06-19T12:11:36Z</time>
      </trkpt>
      <trkpt lat="45.14469" lon="5.46286">
        <ele>1369</ele>
        <time>2011-06-19T12:11:52Z</time>
      </trkpt>
      <trkpt lat="45.14464" lon="5.46286">
        <ele>1369</ele>
        <time>2011-06-19T12:12:01Z</time>
      </trkpt>
      <trkpt lat="45.14454" lon="5.46277">
        <ele>1371</ele>
        <time>2011-06-19T12:12:21Z</time>
      </trkpt>
      <trkpt lat="45.14436" lon="5.46265">
        <ele>1374</ele>
        <time>2011-06-19T12:12:52Z</time>
      </trkpt>
      <trkpt lat="45.14422" lon="5.46265">
        <ele>1376</ele>
        <time>2011-06-19T12:13:10Z</time>
      </trkpt>
      <trkpt lat="45.14419" lon="5.46261">
        <ele>1376</ele>
        <time>2011-06-19T12:13:16Z</time>
      </trkpt>
      <trkpt lat="45.14415" lon="5.4626">
        <ele>1377</ele>
        <time>2011-06-19T12:13:25Z</time>
      </trkpt>
      <trkpt lat="45.14413" lon="5.46254">
        <ele>1377</ele>
        <time>2011-06-19T12:13:26Z</time>
      </trkpt>
      <trkpt lat="45.14403" lon="5.46227">
        <ele>1380</ele>
        <time>2011-06-19T12:13:42Z</time>
      </trkpt>
      <trkpt lat="45.14398" lon="5.46222">
        <ele>1381</ele>
        <time>2011-06-19T12:13:48Z</time>
      </trkpt>
      <trkpt lat="45.14387" lon="5.46219">
        <ele>1383</ele>
        <time>2011-06-19T12:14:07Z</time>
      </trkpt>
      <trkpt lat="45.14383" lon="5.4622">
        <ele>1383</ele>
        <time>2011-06-19T12:14:12Z</time>
      </trkpt>
      <trkpt lat="45.14379" lon="5.46233">
        <ele>1384</ele>
        <time>2011-06-19T12:14:36Z</time>
      </trkpt>
      <trkpt lat="45.14372" lon="5.46241">
        <ele>1384</ele>
        <time>2011-06-19T12:14:42Z</time>
      </trkpt>
      <trkpt lat="45.14345" lon="5.46247">
        <ele>1384</ele>
        <time>2011-06-19T12:14:56Z</time>
      </trkpt>
      <trkpt lat="45.14293" lon="5.46218">
        <ele>1387</ele>
        <time>2011-06-19T12:15:28Z</time>
      </trkpt>
      <trkpt lat="45.14237" lon="5.46191">
        <ele>1393</ele>
        <time>2011-06-19T12:16:00Z</time>
      </trkpt>
      <trkpt lat="45.14164" lon="5.46149">
        <ele>1398</ele>
        <time>2011-06-19T12:16:31Z</time>
      </trkpt>
      <trkpt lat="45.14159" lon="5.46145">
        <ele>1398</ele>
        <time>2011-06-19T12:16:33Z</time>
      </trkpt>
      <trkpt lat="45.14148" lon="5.46147">
        <ele>1399</ele>
        <time>2011-06-19T12:16:39Z</time>
      </trkpt>
      <trkpt lat="45.14143" lon="5.46144">
        <ele>1399</ele>
        <time>2011-06-19T12:16:42Z</time>
      </trkpt>
      <trkpt lat="45.1414" lon="5.46138">
        <ele>1399</ele>
        <time>2011-06-19T12:16:46Z</time>
      </trkpt>
      <trkpt lat="45.14134" lon="5.46118">
        <ele>1400</ele>
        <time>2011-06-19T12:16:58Z</time>
      </trkpt>
      <trkpt lat="45.14136" lon="5.46103">
        <ele>1401</ele>
        <time>2011-06-19T12:17:10Z</time>
      </trkpt>
      <trkpt lat="45.14135" lon="5.4609">
        <ele>1401</ele>
        <time>2011-06-19T12:17:37Z</time>
      </trkpt>
      <trkpt lat="45.14132" lon="5.46085">
        <ele>1401</ele>
        <time>2011-06-19T12:18:15Z</time>
      </trkpt>
      <trkpt lat="45.14132" lon="5.46081">
        <ele>1400</ele>
        <time>2011-06-19T12:18:31Z</time>
      </trkpt>
      <trkpt lat="45.14127" lon="5.4608">
        <ele>1400</ele>
        <time>2011-06-19T12:18:41Z</time>
      </trkpt>
      <trkpt lat="45.14129" lon="5.46086">
        <ele>1401</ele>
        <time>2011-06-19T12:18:49Z</time>
      </trkpt>
      <trkpt lat="45.14135" lon="5.46096">
        <ele>1400</ele>
        <time>2011-06-19T12:18:55Z</time>
      </trkpt>
      <trkpt lat="45.14132" lon="5.46101">
        <ele>1400</ele>
        <time>2011-06-19T12:19:20Z</time>
      </trkpt>
      <trkpt lat="45.14129" lon="5.46106">
        <ele>1401</ele>
        <time>2011-06-19T12:19:33Z</time>
      </trkpt>
      <trkpt lat="45.14124" lon="5.46107">
        <ele>1402</ele>
        <time>2011-06-19T12:19:40Z</time>
      </trkpt>
      <trkpt lat="45.14099" lon="5.46093">
        <ele>1404</ele>
        <time>2011-06-19T12:19:58Z</time>
      </trkpt>
      <trkpt lat="45.14094" lon="5.46085">
        <ele>1405</ele>
        <time>2011-06-19T12:20:08Z</time>
      </trkpt>
      <trkpt lat="45.14092" lon="5.46056">
        <ele>1407</ele>
        <time>2011-06-19T12:20:25Z</time>
      </trkpt>
      <trkpt lat="45.1408" lon="5.4604">
        <ele>1407</ele>
        <time>2011-06-19T12:20:44Z</time>
      </trkpt>
      <trkpt lat="45.1408" lon="5.46033">
        <ele>1407</ele>
        <time>2011-06-19T12:20:55Z</time>
      </trkpt>
      <trkpt lat="45.14077" lon="5.46027">
        <ele>1407</ele>
        <time>2011-06-19T12:21:00Z</time>
      </trkpt>
      <trkpt lat="45.14057" lon="5.45998">
        <ele>1408</ele>
        <time>2011-06-19T12:21:35Z</time>
      </trkpt>
      <trkpt lat="45.14048" lon="5.45991">
        <ele>1408</ele>
        <time>2011-06-19T12:21:48Z</time>
      </trkpt>
      <trkpt lat="45.14046" lon="5.45985">
        <ele>1408</ele>
        <time>2011-06-19T12:21:53Z</time>
      </trkpt>
      <trkpt lat="45.14043" lon="5.45979">
        <ele>1409</ele>
        <time>2011-06-19T12:22:00Z</time>
      </trkpt>
      <trkpt lat="45.14038" lon="5.45976">
        <ele>1409</ele>
        <time>2011-06-19T12:22:08Z</time>
      </trkpt>
      <trkpt lat="45.14017" lon="5.4597">
        <ele>1411</ele>
        <time>2011-06-19T12:22:32Z</time>
      </trkpt>
      <trkpt lat="45.13966" lon="5.4593">
        <ele>1413</ele>
        <time>2011-06-19T12:23:02Z</time>
      </trkpt>
      <trkpt lat="45.13959" lon="5.4592">
        <ele>1413</ele>
        <time>2011-06-19T12:23:06Z</time>
      </trkpt>
      <trkpt lat="45.13921" lon="5.45902">
        <ele>1415</ele>
        <time>2011-06-19T12:23:25Z</time>
      </trkpt>
      <trkpt lat="45.13896" lon="5.45852">
        <ele>1417</ele>
        <time>2011-06-19T12:23:58Z</time>
      </trkpt>
      <trkpt lat="45.13895" lon="5.45842">
        <ele>1418</ele>
        <time>2011-06-19T12:24:07Z</time>
      </trkpt>
      <trkpt lat="45.13897" lon="5.45835">
        <ele>1418</ele>
        <time>2011-06-19T12:24:13Z</time>
      </trkpt>
      <trkpt lat="45.13895" lon="5.45829">
        <ele>1419</ele>
        <time>2011-06-19T12:24:18Z</time>
      </trkpt>
      <trkpt lat="45.13874" lon="5.45788">
        <ele>1423</ele>
        <time>2011-06-19T12:24:48Z</time>
      </trkpt>
      <trkpt lat="45.13865" lon="5.4577">
        <ele>1424</ele>
        <time>2011-06-19T12:25:01Z</time>
      </trkpt>
      <trkpt lat="45.13833" lon="5.45749">
        <ele>1428</ele>
        <time>2011-06-19T12:25:27Z</time>
      </trkpt>
      <trkpt lat="45.1379" lon="5.45746">
        <ele>1430</ele>
        <time>2011-06-19T12:25:49Z</time>
      </trkpt>
      <trkpt lat="45.13775" lon="5.45733">
        <ele>1431</ele>
        <time>2011-06-19T12:25:59Z</time>
      </trkpt>
      <trkpt lat="45.1375" lon="5.45726">
        <ele>1431</ele>
        <time>2011-06-19T12:26:19Z</time>
      </trkpt>
      <trkpt lat="45.13745" lon="5.45721">
        <ele>1431</ele>
        <time>2011-06-19T12:26:23Z</time>
      </trkpt>
      <trkpt lat="45.13743" lon="5.45714">
        <ele>1431</ele>
        <time>2011-06-19T12:26:35Z</time>
      </trkpt>
      <trkpt lat="45.13738" lon="5.45716">
        <ele>1430</ele>
        <time>2011-06-19T12:26:43Z</time>
      </trkpt>
      <trkpt lat="45.13734" lon="5.45711">
        <ele>1430</ele>
        <time>2011-06-19T12:26:51Z</time>
      </trkpt>
      <trkpt lat="45.13731" lon="5.45708">
        <ele>1429</ele>
        <time>2011-06-19T12:27:01Z</time>
      </trkpt>
      <trkpt lat="45.13728" lon="5.45708">
        <ele>1428</ele>
        <time>2011-06-19T12:27:07Z</time>
      </trkpt>
      <trkpt lat="45.13727" lon="5.45701">
        <ele>1427</ele>
        <time>2011-06-19T12:27:26Z</time>
      </trkpt>
      <trkpt lat="45.13732" lon="5.45691">
        <ele>1426</ele>
        <time>2011-06-19T12:27:41Z</time>
      </trkpt>
      <trkpt lat="45.1373" lon="5.45691">
        <ele>1426</ele>
        <time>2011-06-19T12:27:48Z</time>
      </trkpt>
      <trkpt lat="45.13727" lon="5.45689">
        <ele>1425</ele>
        <time>2011-06-19T12:27:55Z</time>
      </trkpt>
      <trkpt lat="45.13725" lon="5.4569">
        <ele>1425</ele>
        <time>2011-06-19T12:28:07Z</time>
      </trkpt>
      <trkpt lat="45.13734" lon="5.45686">
        <ele>1424</ele>
        <time>2011-06-19T12:28:18Z</time>
      </trkpt>
      <trkpt lat="45.13731" lon="5.4569">
        <ele>1422</ele>
        <time>2011-06-19T12:28:50Z</time>
      </trkpt>
      <trkpt lat="45.13725" lon="5.4569">
        <ele>1421</ele>
        <time>2011-06-19T12:29:01Z</time>
      </trkpt>
      <trkpt lat="45.13721" lon="5.45686">
        <ele>1420</ele>
        <time>2011-06-19T12:29:19Z</time>
      </trkpt>
      <trkpt lat="45.13724" lon="5.45677">
        <ele>1420</ele>
        <time>2011-06-19T12:29:28Z</time>
      </trkpt>
      <trkpt lat="45.13713" lon="5.45676">
        <ele>1420</ele>
        <time>2011-06-19T12:29:42Z</time>
      </trkpt>
      <trkpt lat="45.1371" lon="5.4567">
        <ele>1420</ele>
        <time>2011-06-19T12:29:45Z</time>
      </trkpt>
      <trkpt lat="45.13708" lon="5.45667">
        <ele>1420</ele>
        <time>2011-06-19T12:29:51Z</time>
      </trkpt>
      <trkpt lat="45.13703" lon="5.45665">
        <ele>1420</ele>
        <time>2011-06-19T12:29:57Z</time>
      </trkpt>
      <trkpt lat="45.13698" lon="5.45657">
        <ele>1421</ele>
        <time>2011-06-19T12:30:07Z</time>
      </trkpt>
      <trkpt lat="45.13702" lon="5.45657">
        <ele>1421</ele>
        <time>2011-06-19T12:30:17Z</time>
      </trkpt>
      <trkpt lat="45.13702" lon="5.45653">
        <ele>1422</ele>
        <time>2011-06-19T12:30:23Z</time>
      </trkpt>
      <trkpt lat="45.13697" lon="5.45643">
        <ele>1422</ele>
        <time>2011-06-19T12:30:36Z</time>
      </trkpt>
      <trkpt lat="45.13695" lon="5.45634">
        <ele>1422</ele>
        <time>2011-06-19T12:30:45Z</time>
      </trkpt>
      <trkpt lat="45.13685" lon="5.45613">
        <ele>1425</ele>
        <time>2011-06-19T12:31:06Z</time>
      </trkpt>
      <trkpt lat="45.13644" lon="5.45563">
        <ele>1431</ele>
        <time>2011-06-19T12:31:36Z</time>
      </trkpt>
      <trkpt lat="45.13625" lon="5.45565">
        <ele>1432</ele>
        <time>2011-06-19T12:31:48Z</time>
      </trkpt>
      <trkpt lat="45.13588" lon="5.45574">
        <ele>1435</ele>
        <time>2011-06-19T12:32:09Z</time>
      </trkpt>
      <trkpt lat="45.13517" lon="5.45554">
        <ele>1436</ele>
        <time>2011-06-19T12:32:40Z</time>
      </trkpt>
      <trkpt lat="45.13512" lon="5.45549">
        <ele>1436</ele>
        <time>2011-06-19T12:32:43Z</time>
      </trkpt>
      <trkpt lat="45.13513" lon="5.45542">
        <ele>1436</ele>
        <time>2011-06-19T12:32:54Z</time>
      </trkpt>
      <trkpt lat="45.13509" lon="5.4553">
        <ele>1436</ele>
        <time>2011-06-19T12:33:31Z</time>
      </trkpt>
      <trkpt lat="45.13507" lon="5.45536">
        <ele>1435</ele>
        <time>2011-06-19T12:33:54Z</time>
      </trkpt>
      <trkpt lat="45.13501" lon="5.45537">
        <ele>1435</ele>
        <time>2011-06-19T12:33:57Z</time>
      </trkpt>
      <trkpt lat="45.13488" lon="5.45537">
        <ele>1434</ele>
        <time>2011-06-19T12:34:03Z</time>
      </trkpt>
      <trkpt lat="45.13409" lon="5.45467">
        <ele>1433</ele>
        <time>2011-06-19T12:34:36Z</time>
      </trkpt>
      <trkpt lat="45.13363" lon="5.4542">
        <ele>1433</ele>
        <time>2011-06-19T12:35:07Z</time>
      </trkpt>
      <trkpt lat="45.13311" lon="5.45337">
        <ele>1434</ele>
        <time>2011-06-19T12:35:38Z</time>
      </trkpt>
      <trkpt lat="45.13235" lon="5.45251">
        <ele>1435</ele>
        <time>2011-06-19T12:36:08Z</time>
      </trkpt>
      <trkpt lat="45.13213" lon="5.45242">
        <ele>1437</ele>
        <time>2011-06-19T12:36:12Z</time>
      </trkpt>
      <trkpt lat="45.13137" lon="5.45199">
        <ele>1439</ele>
        <time>2011-06-19T12:36:43Z</time>
      </trkpt>
      <trkpt lat="45.13056" lon="5.45068">
        <ele>1440</ele>
        <time>2011-06-19T12:37:13Z</time>
      </trkpt>
      <trkpt lat="45.13072" lon="5.44972">
        <ele>1440</ele>
        <time>2011-06-19T12:37:36Z</time>
      </trkpt>
      <trkpt lat="45.13079" lon="5.4496">
        <ele>1440</ele>
        <time>2011-06-19T12:37:39Z</time>
      </trkpt>
      <trkpt lat="45.13105" lon="5.44936">
        <ele>1441</ele>
        <time>2011-06-19T12:37:46Z</time>
      </trkpt>
      <trkpt lat="45.13126" lon="5.44885">
        <ele>1440</ele>
        <time>2011-06-19T12:37:59Z</time>
      </trkpt>
      <trkpt lat="45.13124" lon="5.44851">
        <ele>1440</ele>
        <time>2011-06-19T12:38:07Z</time>
      </trkpt>
      <trkpt lat="45.13101" lon="5.44772">
        <ele>1441</ele>
        <time>2011-06-19T12:38:48Z</time>
      </trkpt>
      <trkpt lat="45.13094" lon="5.44764">
        <ele>1441</ele>
        <time>2011-06-19T12:39:01Z</time>
      </trkpt>
      <trkpt lat="45.13082" lon="5.44736">
        <ele>1443</ele>
        <time>2011-06-19T12:39:19Z</time>
      </trkpt>
      <trkpt lat="45.13081" lon="5.44714">
        <ele>1444</ele>
        <time>2011-06-19T12:39:26Z</time>
      </trkpt>
      <trkpt lat="45.13076" lon="5.44697">
        <ele>1445</ele>
        <time>2011-06-19T12:39:42Z</time>
      </trkpt>
      <trkpt lat="45.13068" lon="5.44652">
        <ele>1443</ele>
        <time>2011-06-19T12:40:02Z</time>
      </trkpt>
      <trkpt lat="45.13065" lon="5.44645">
        <ele>1443</ele>
        <time>2011-06-19T12:40:09Z</time>
      </trkpt>
      <trkpt lat="45.13066" lon="5.44638">
        <ele>1442</ele>
        <time>2011-06-19T12:40:16Z</time>
      </trkpt>
      <trkpt lat="45.13066" lon="5.44637">
        <ele>1435</ele>
        <time>2011-06-19T12:41:15Z</time>
      </trkpt>
      <trkpt lat="45.1306" lon="5.44631">
        <ele>1432</ele>
        <time>2011-06-19T12:43:03Z</time>
      </trkpt>
      <trkpt lat="45.13046" lon="5.44606">
        <ele>1431</ele>
        <time>2011-06-19T12:43:11Z</time>
      </trkpt>
      <trkpt lat="45.13045" lon="5.44588">
        <ele>1430</ele>
        <time>2011-06-19T12:43:19Z</time>
      </trkpt>
      <trkpt lat="45.12997" lon="5.44499">
        <ele>1424</ele>
        <time>2011-06-19T12:43:50Z</time>
      </trkpt>
      <trkpt lat="45.12961" lon="5.4442">
        <ele>1418</ele>
        <time>2011-06-19T12:44:09Z</time>
      </trkpt>
      <trkpt lat="45.12932" lon="5.44366">
        <ele>1400</ele>
        <time>2011-06-19T12:44:19Z</time>
      </trkpt>
      <trkpt lat="45.12857" lon="5.44265">
        <ele>1398</ele>
        <time>2011-06-19T12:44:52Z</time>
      </trkpt>
      <trkpt lat="45.12848" lon="5.44262">
        <ele>1398</ele>
        <time>2011-06-19T12:44:54Z</time>
      </trkpt>
      <trkpt lat="45.12839" lon="5.44259">
        <ele>1397</ele>
        <time>2011-06-19T12:44:56Z</time>
      </trkpt>
      <trkpt lat="45.12818" lon="5.44249">
        <ele>1396</ele>
        <time>2011-06-19T12:45:03Z</time>
      </trkpt>
      <trkpt lat="45.12802" lon="5.44214">
        <ele>1394</ele>
        <time>2011-06-19T12:45:14Z</time>
      </trkpt>
      <trkpt lat="45.1278" lon="5.44104">
        <ele>1387</ele>
        <time>2011-06-19T12:45:44Z</time>
      </trkpt>
      <trkpt lat="45.12741" lon="5.4404">
        <ele>1381</ele>
        <time>2011-06-19T12:46:11Z</time>
      </trkpt>
      <trkpt lat="45.12742" lon="5.44025">
        <ele>1380</ele>
        <time>2011-06-19T12:46:17Z</time>
      </trkpt>
      <trkpt lat="45.12748" lon="5.43918">
        <ele>1374</ele>
        <time>2011-06-19T12:46:48Z</time>
      </trkpt>
      <trkpt lat="45.12753" lon="5.43895">
        <ele>1372</ele>
        <time>2011-06-19T12:46:56Z</time>
      </trkpt>
      <trkpt lat="45.12747" lon="5.43883">
        <ele>1371</ele>
        <time>2011-06-19T12:47:05Z</time>
      </trkpt>
      <trkpt lat="45.12747" lon="5.43871">
        <ele>1368</ele>
        <time>2011-06-19T12:47:29Z</time>
      </trkpt>
      <trkpt lat="45.12774" lon="5.43809">
        <ele>1360</ele>
        <time>2011-06-19T12:48:00Z</time>
      </trkpt>
      <trkpt lat="45.12775" lon="5.43802">
        <ele>1359</ele>
        <time>2011-06-19T12:48:03Z</time>
      </trkpt>
      <trkpt lat="45.12774" lon="5.43786">
        <ele>1357</ele>
        <time>2011-06-19T12:48:11Z</time>
      </trkpt>
      <trkpt lat="45.12772" lon="5.4378">
        <ele>1357</ele>
        <time>2011-06-19T12:48:14Z</time>
      </trkpt>
      <trkpt lat="45.12707" lon="5.43696">
        <ele>1350</ele>
        <time>2011-06-19T12:48:45Z</time>
      </trkpt>
      <trkpt lat="45.12709" lon="5.43667">
        <ele>1350</ele>
        <time>2011-06-19T12:48:49Z</time>
      </trkpt>
      <trkpt lat="45.12706" lon="5.43657">
        <ele>1349</ele>
        <time>2011-06-19T12:49:00Z</time>
      </trkpt>
      <trkpt lat="45.12708" lon="5.43653">
        <ele>1346</ele>
        <time>2011-06-19T12:49:19Z</time>
      </trkpt>
      <trkpt lat="45.12711" lon="5.43649">
        <ele>1344</ele>
        <time>2011-06-19T12:49:30Z</time>
      </trkpt>
      <trkpt lat="45.12708" lon="5.43647">
        <ele>1341</ele>
        <time>2011-06-19T12:50:44Z</time>
      </trkpt>
      <trkpt lat="45.12705" lon="5.4365">
        <ele>1336</ele>
        <time>2011-06-19T12:51:53Z</time>
      </trkpt>
      <trkpt lat="45.12709" lon="5.4364">
        <ele>1335</ele>
        <time>2011-06-19T12:52:06Z</time>
      </trkpt>
      <trkpt lat="45.12709" lon="5.43632">
        <ele>1335</ele>
        <time>2011-06-19T12:52:09Z</time>
      </trkpt>
      <trkpt lat="45.12726" lon="5.43592">
        <ele>1333</ele>
        <time>2011-06-19T12:52:24Z</time>
      </trkpt>
      <trkpt lat="45.12794" lon="5.4353">
        <ele>1329</ele>
        <time>2011-06-19T12:52:46Z</time>
      </trkpt>
      <trkpt lat="45.12821" lon="5.43514">
        <ele>1320</ele>
        <time>2011-06-19T12:52:52Z</time>
      </trkpt>
      <trkpt lat="45.12976" lon="5.43458">
        <ele>1310</ele>
        <time>2011-06-19T12:53:23Z</time>
      </trkpt>
      <trkpt lat="45.12988" lon="5.43443">
        <ele>1310</ele>
        <time>2011-06-19T12:53:28Z</time>
      </trkpt>
      <trkpt lat="45.13003" lon="5.43437">
        <ele>1308</ele>
        <time>2011-06-19T12:53:46Z</time>
      </trkpt>
      <trkpt lat="45.13009" lon="5.43444">
        <ele>1304</ele>
        <time>2011-06-19T12:54:44Z</time>
      </trkpt>
      <trkpt lat="45.1301" lon="5.43449">
        <ele>1301</ele>
        <time>2011-06-19T12:57:12Z</time>
      </trkpt>
      <trkpt lat="45.13005" lon="5.43449">
        <ele>1301</ele>
        <time>2011-06-19T12:57:32Z</time>
      </trkpt>
      <trkpt lat="45.13006" lon="5.43447">
        <ele>1301</ele>
        <time>2011-06-19T12:57:49Z</time>
      </trkpt>
      <trkpt lat="45.13008" lon="5.4345">
        <ele>1300</ele>
        <time>2011-06-19T12:58:30Z</time>
      </trkpt>
      <trkpt lat="45.13003" lon="5.43452">
        <ele>1300</ele>
        <time>2011-06-19T12:58:42Z</time>
      </trkpt>
      <trkpt lat="45.13004" lon="5.43446">
        <ele>1300</ele>
        <time>2011-06-19T12:59:04Z</time>
      </trkpt>
      <trkpt lat="45.12996" lon="5.43452">
        <ele>1300</ele>
        <time>2011-06-19T12:59:16Z</time>
      </trkpt>
      <trkpt lat="45.12996" lon="5.43452">
        <ele>1300</ele>
        <time>2011-06-19T12:59:38Z</time>
      </trkpt>
      <trkpt lat="45.13" lon="5.43447">
        <ele>1300</ele>
        <time>2011-06-19T12:59:40Z</time>
      </trkpt>
      <trkpt lat="45.13004" lon="5.43446">
        <ele>1301</ele>
        <time>2011-06-19T12:59:49Z</time>
      </trkpt>
      <trkpt lat="45.13002" lon="5.43444">
        <ele>1301</ele>
        <time>2011-06-19T13:00:04Z</time>
      </trkpt>
      <trkpt lat="45.13003" lon="5.43438">
        <ele>1300</ele>
        <time>2011-06-19T13:01:30Z</time>
      </trkpt>
      <trkpt lat="45.13001" lon="5.43436">
        <ele>1300</ele>
        <time>2011-06-19T13:01:49Z</time>
      </trkpt>
      <trkpt lat="45.13" lon="5.43443">
        <ele>1300</ele>
        <time>2011-06-19T13:02:14Z</time>
      </trkpt>
      <trkpt lat="45.13005" lon="5.43442">
        <ele>1300</ele>
        <time>2011-06-19T13:02:49Z</time>
      </trkpt>
      <trkpt lat="45.1301" lon="5.43445">
        <ele>1300</ele>
        <time>2011-06-19T13:02:53Z</time>
      </trkpt>
      <trkpt lat="45.13016" lon="5.43447">
        <ele>1300</ele>
        <time>2011-06-19T13:03:19Z</time>
      </trkpt>
      <trkpt lat="45.13025" lon="5.43449">
        <ele>1301</ele>
        <time>2011-06-19T13:03:26Z</time>
      </trkpt>
      <trkpt lat="45.13023" lon="5.43455">
        <ele>1301</ele>
        <time>2011-06-19T13:03:45Z</time>
      </trkpt>
      <trkpt lat="45.13018" lon="5.43452">
        <ele>1301</ele>
        <time>2011-06-19T13:03:46Z</time>
      </trkpt>
      <trkpt lat="45.13012" lon="5.43446">
        <ele>1302</ele>
        <time>2011-06-19T13:04:06Z</time>
      </trkpt>
      <trkpt lat="45.13012" lon="5.4345">
        <ele>1303</ele>
        <time>2011-06-19T13:04:41Z</time>
      </trkpt>
      <trkpt lat="45.13014" lon="5.43439">
        <ele>1304</ele>
        <time>2011-06-19T13:04:58Z</time>
      </trkpt>
      <trkpt lat="45.13011" lon="5.43441">
        <ele>1305</ele>
        <time>2011-06-19T13:05:09Z</time>
      </trkpt>
      <trkpt lat="45.13012" lon="5.4344">
        <ele>1304</ele>
        <time>2011-06-19T13:05:52Z</time>
      </trkpt>
      <trkpt lat="45.1301" lon="5.43434">
        <ele>1303</ele>
        <time>2011-06-19T13:06:13Z</time>
      </trkpt>
      <trkpt lat="45.13006" lon="5.43437">
        <ele>1303</ele>
        <time>2011-06-19T13:06:16Z</time>
      </trkpt>
      <trkpt lat="45.13003" lon="5.43442">
        <ele>1303</ele>
        <time>2011-06-19T13:06:35Z</time>
      </trkpt>
      <trkpt lat="45.13002" lon="5.43438">
        <ele>1303</ele>
        <time>2011-06-19T13:06:45Z</time>
      </trkpt>
      <trkpt lat="45.13015" lon="5.43433">
        <ele>1303</ele>
        <time>2011-06-19T13:06:49Z</time>
      </trkpt>
      <trkpt lat="45.13037" lon="5.43438">
        <ele>1299</ele>
        <time>2011-06-19T13:06:53Z</time>
      </trkpt>
      <trkpt lat="45.13051" lon="5.43454">
        <ele>1298</ele>
        <time>2011-06-19T13:06:56Z</time>
      </trkpt>
      <trkpt lat="45.13062" lon="5.43457">
        <ele>1296</ele>
        <time>2011-06-19T13:06:58Z</time>
      </trkpt>
      <trkpt lat="45.13081" lon="5.43445">
        <ele>1295</ele>
        <time>2011-06-19T13:07:02Z</time>
      </trkpt>
      <trkpt lat="45.13091" lon="5.43432">
        <ele>1294</ele>
        <time>2011-06-19T13:07:06Z</time>
      </trkpt>
      <trkpt lat="45.13092" lon="5.43424">
        <ele>1294</ele>
        <time>2011-06-19T13:07:10Z</time>
      </trkpt>
      <trkpt lat="45.1309" lon="5.43408">
        <ele>1293</ele>
        <time>2011-06-19T13:07:17Z</time>
      </trkpt>
      <trkpt lat="45.13097" lon="5.43385">
        <ele>1292</ele>
        <time>2011-06-19T13:07:24Z</time>
      </trkpt>
      <trkpt lat="45.13107" lon="5.43362">
        <ele>1288</ele>
        <time>2011-06-19T13:08:04Z</time>
      </trkpt>
      <trkpt lat="45.13113" lon="5.43355">
        <ele>1286</ele>
        <time>2011-06-19T13:08:16Z</time>
      </trkpt>
      <trkpt lat="45.13114" lon="5.43349">
        <ele>1285</ele>
        <time>2011-06-19T13:08:23Z</time>
      </trkpt>
      <trkpt lat="45.13128" lon="5.43314">
        <ele>1282</ele>
        <time>2011-06-19T13:08:50Z</time>
      </trkpt>
      <trkpt lat="45.1313" lon="5.43313">
        <ele>1282</ele>
        <time>2011-06-19T13:09:06Z</time>
      </trkpt>
      <trkpt lat="45.13133" lon="5.43304">
        <ele>1280</ele>
        <time>2011-06-19T13:09:21Z</time>
      </trkpt>
      <trkpt lat="45.13137" lon="5.43296">
        <ele>1280</ele>
        <time>2011-06-19T13:09:26Z</time>
      </trkpt>
      <trkpt lat="45.13139" lon="5.43293">
        <ele>1279</ele>
        <time>2011-06-19T13:09:40Z</time>
      </trkpt>
      <trkpt lat="45.13141" lon="5.43283">
        <ele>1277</ele>
        <time>2011-06-19T13:09:58Z</time>
      </trkpt>
      <trkpt lat="45.13159" lon="5.43262">
        <ele>1275</ele>
        <time>2011-06-19T13:10:44Z</time>
      </trkpt>
      <trkpt lat="45.13155" lon="5.43256">
        <ele>1274</ele>
        <time>2011-06-19T13:11:12Z</time>
      </trkpt>
      <trkpt lat="45.13161" lon="5.43256">
        <ele>1274</ele>
        <time>2011-06-19T13:11:21Z</time>
      </trkpt>
      <trkpt lat="45.13194" lon="5.43214">
        <ele>1274</ele>
        <time>2011-06-19T13:11:44Z</time>
      </trkpt>
      <trkpt lat="45.13233" lon="5.4316">
        <ele>1271</ele>
        <time>2011-06-19T13:12:18Z</time>
      </trkpt>
      <trkpt lat="45.1326" lon="5.43146">
        <ele>1268</ele>
        <time>2011-06-19T13:12:39Z</time>
      </trkpt>
      <trkpt lat="45.1328" lon="5.4315">
        <ele>1267</ele>
        <time>2011-06-19T13:13:01Z</time>
      </trkpt>
      <trkpt lat="45.13279" lon="5.43157">
        <ele>1267</ele>
        <time>2011-06-19T13:13:16Z</time>
      </trkpt>
      <trkpt lat="45.13284" lon="5.43157">
        <ele>1264</ele>
        <time>2011-06-19T13:13:48Z</time>
      </trkpt>
      <trkpt lat="45.13298" lon="5.43146">
        <ele>1262</ele>
        <time>2011-06-19T13:14:01Z</time>
      </trkpt>
      <trkpt lat="45.133" lon="5.43145">
        <ele>1260</ele>
        <time>2011-06-19T13:14:45Z</time>
      </trkpt>
      <trkpt lat="45.13305" lon="5.43143">
        <ele>1259</ele>
        <time>2011-06-19T13:15:02Z</time>
      </trkpt>
      <trkpt lat="45.13417" lon="5.43136">
        <ele>1258</ele>
        <time>2011-06-19T13:15:33Z</time>
      </trkpt>
      <trkpt lat="45.13522" lon="5.43105">
        <ele>1256</ele>
        <time>2011-06-19T13:16:06Z</time>
      </trkpt>
      <trkpt lat="45.1361" lon="5.43091">
        <ele>1255</ele>
        <time>2011-06-19T13:16:37Z</time>
      </trkpt>
      <trkpt lat="45.13666" lon="5.43098">
        <ele>1255</ele>
        <time>2011-06-19T13:18:09Z</time>
      </trkpt>
      <trkpt lat="45.13714" lon="5.43069">
        <ele>1254</ele>
        <time>2011-06-19T13:18:33Z</time>
      </trkpt>
      <trkpt lat="45.1372" lon="5.43074">
        <ele>1253</ele>
        <time>2011-06-19T13:18:42Z</time>
      </trkpt>
      <trkpt lat="45.13727" lon="5.43067">
        <ele>1252</ele>
        <time>2011-06-19T13:18:46Z</time>
      </trkpt>
      <trkpt lat="45.13731" lon="5.43066">
        <ele>1252</ele>
        <time>2011-06-19T13:18:55Z</time>
      </trkpt>
      <trkpt lat="45.13738" lon="5.43071">
        <ele>1251</ele>
        <time>2011-06-19T13:19:15Z</time>
      </trkpt>
      <trkpt lat="45.13738" lon="5.43064">
        <ele>1249</ele>
        <time>2011-06-19T13:19:58Z</time>
      </trkpt>
      <trkpt lat="45.13741" lon="5.43058">
        <ele>1249</ele>
        <time>2011-06-19T13:20:00Z</time>
      </trkpt>
      <trkpt lat="45.13779" lon="5.43013">
        <ele>1250</ele>
        <time>2011-06-19T13:20:20Z</time>
      </trkpt>
      <trkpt lat="45.13793" lon="5.43006">
        <ele>1250</ele>
        <time>2011-06-19T13:20:51Z</time>
      </trkpt>
      <trkpt lat="45.13792" lon="5.43">
        <ele>1249</ele>
        <time>2011-06-19T13:21:06Z</time>
      </trkpt>
      <trkpt lat="45.13791" lon="5.4299">
        <ele>1249</ele>
        <time>2011-06-19T13:21:09Z</time>
      </trkpt>
      <trkpt lat="45.13782" lon="5.42971">
        <ele>1249</ele>
        <time>2011-06-19T13:21:15Z</time>
      </trkpt>
      <trkpt lat="45.13778" lon="5.42969">
        <ele>1248</ele>
        <time>2011-06-19T13:21:17Z</time>
      </trkpt>
      <trkpt lat="45.13747" lon="5.4297">
        <ele>1248</ele>
        <time>2011-06-19T13:21:27Z</time>
      </trkpt>
      <trkpt lat="45.13604" lon="5.42964">
        <ele>1238</ele>
        <time>2011-06-19T13:21:57Z</time>
      </trkpt>
      <trkpt lat="45.1339" lon="5.42894">
        <ele>1233</ele>
        <time>2011-06-19T13:22:28Z</time>
      </trkpt>
      <trkpt lat="45.1338" lon="5.42888">
        <ele>1233</ele>
        <time>2011-06-19T13:22:33Z</time>
      </trkpt>
      <trkpt lat="45.13375" lon="5.42883">
        <ele>1231</ele>
        <time>2011-06-19T13:23:58Z</time>
      </trkpt>
      <trkpt lat="45.13316" lon="5.42857">
        <ele>1224</ele>
        <time>2011-06-19T13:24:10Z</time>
      </trkpt>
      <trkpt lat="45.13279" lon="5.42823">
        <ele>1224</ele>
        <time>2011-06-19T13:24:16Z</time>
      </trkpt>
      <trkpt lat="45.13145" lon="5.42624">
        <ele>1211</ele>
        <time>2011-06-19T13:24:46Z</time>
      </trkpt>
      <trkpt lat="45.1313" lon="5.42612">
        <ele>1210</ele>
        <time>2011-06-19T13:24:50Z</time>
      </trkpt>
      <trkpt lat="45.13124" lon="5.42601">
        <ele>1210</ele>
        <time>2011-06-19T13:24:54Z</time>
      </trkpt>
      <trkpt lat="45.13114" lon="5.42593">
        <ele>1210</ele>
        <time>2011-06-19T13:24:58Z</time>
      </trkpt>
      <trkpt lat="45.13062" lon="5.42543">
        <ele>1205</ele>
        <time>2011-06-19T13:25:13Z</time>
      </trkpt>
      <trkpt lat="45.13062" lon="5.42503">
        <ele>1203</ele>
        <time>2011-06-19T13:25:45Z</time>
      </trkpt>
      <trkpt lat="45.13062" lon="5.42486">
        <ele>1202</ele>
        <time>2011-06-19T13:25:51Z</time>
      </trkpt>
      <trkpt lat="45.13055" lon="5.42478">
        <ele>1202</ele>
        <time>2011-06-19T13:25:57Z</time>
      </trkpt>
      <trkpt lat="45.13043" lon="5.42468">
        <ele>1199</ele>
        <time>2011-06-19T13:26:16Z</time>
      </trkpt>
      <trkpt lat="45.13034" lon="5.4246">
        <ele>1199</ele>
        <time>2011-06-19T13:26:20Z</time>
      </trkpt>
      <trkpt lat="45.13009" lon="5.4246">
        <ele>1200</ele>
        <time>2011-06-19T13:26:32Z</time>
      </trkpt>
      <trkpt lat="45.12989" lon="5.4246">
        <ele>1200</ele>
        <time>2011-06-19T13:26:38Z</time>
      </trkpt>
      <trkpt lat="45.12975" lon="5.42441">
        <ele>1202</ele>
        <time>2011-06-19T13:26:41Z</time>
      </trkpt>
      <trkpt lat="45.1297" lon="5.42434">
        <ele>1202</ele>
        <time>2011-06-19T13:26:42Z</time>
      </trkpt>
      <trkpt lat="45.12913" lon="5.42321">
        <ele>1197</ele>
        <time>2011-06-19T13:27:12Z</time>
      </trkpt>
      <trkpt lat="45.12879" lon="5.42289">
        <ele>1196</ele>
        <time>2011-06-19T13:27:34Z</time>
      </trkpt>
      <trkpt lat="45.12866" lon="5.42273">
        <ele>1197</ele>
        <time>2011-06-19T13:27:42Z</time>
      </trkpt>
      <trkpt lat="45.12851" lon="5.42255">
        <ele>1201</ele>
        <time>2011-06-19T13:27:46Z</time>
      </trkpt>
      <trkpt lat="45.12758" lon="5.4204">
        <ele>1196</ele>
        <time>2011-06-19T13:28:17Z</time>
      </trkpt>
      <trkpt lat="45.12675" lon="5.4194">
        <ele>1194</ele>
        <time>2011-06-19T13:28:49Z</time>
      </trkpt>
      <trkpt lat="45.12668" lon="5.41922">
        <ele>1194</ele>
        <time>2011-06-19T13:28:59Z</time>
      </trkpt>
      <trkpt lat="45.12677" lon="5.41871">
        <ele>1196</ele>
        <time>2011-06-19T13:29:19Z</time>
      </trkpt>
      <trkpt lat="45.12694" lon="5.41827">
        <ele>1198</ele>
        <time>2011-06-19T13:29:47Z</time>
      </trkpt>
      <trkpt lat="45.12691" lon="5.41801">
        <ele>1200</ele>
        <time>2011-06-19T13:30:27Z</time>
      </trkpt>
      <trkpt lat="45.12694" lon="5.41794">
        <ele>1201</ele>
        <time>2011-06-19T13:31:01Z</time>
      </trkpt>
      <trkpt lat="45.12697" lon="5.41785">
        <ele>1202</ele>
        <time>2011-06-19T13:31:26Z</time>
      </trkpt>
      <trkpt lat="45.12698" lon="5.41779">
        <ele>1202</ele>
        <time>2011-06-19T13:31:36Z</time>
      </trkpt>
      <trkpt lat="45.12703" lon="5.41771">
        <ele>1205</ele>
        <time>2011-06-19T13:31:47Z</time>
      </trkpt>
      <trkpt lat="45.12705" lon="5.41756">
        <ele>1206</ele>
        <time>2011-06-19T13:31:52Z</time>
      </trkpt>
      <trkpt lat="45.12698" lon="5.41734">
        <ele>1208</ele>
        <time>2011-06-19T13:31:58Z</time>
      </trkpt>
      <trkpt lat="45.12692" lon="5.41719">
        <ele>1214</ele>
        <time>2011-06-19T13:32:01Z</time>
      </trkpt>
      <trkpt lat="45.12689" lon="5.41676">
        <ele>1215</ele>
        <time>2011-06-19T13:32:12Z</time>
      </trkpt>
      <trkpt lat="45.12687" lon="5.41628">
        <ele>1217</ele>
        <time>2011-06-19T13:32:36Z</time>
      </trkpt>
      <trkpt lat="45.12674" lon="5.41566">
        <ele>1214</ele>
        <time>2011-06-19T13:33:07Z</time>
      </trkpt>
      <trkpt lat="45.12649" lon="5.41514">
        <ele>1212</ele>
        <time>2011-06-19T13:33:40Z</time>
      </trkpt>
      <trkpt lat="45.12645" lon="5.4151">
        <ele>1212</ele>
        <time>2011-06-19T13:33:44Z</time>
      </trkpt>
      <trkpt lat="45.12638" lon="5.4151">
        <ele>1214</ele>
        <time>2011-06-19T13:34:15Z</time>
      </trkpt>
      <trkpt lat="45.12629" lon="5.41516">
        <ele>1219</ele>
        <time>2011-06-19T13:34:42Z</time>
      </trkpt>
      <trkpt lat="45.12618" lon="5.41515">
        <ele>1221</ele>
        <time>2011-06-19T13:34:45Z</time>
      </trkpt>
      <trkpt lat="45.12592" lon="5.41513">
        <ele>1232</ele>
        <time>2011-06-19T13:34:50Z</time>
      </trkpt>
      <trkpt lat="45.12545" lon="5.41502">
        <ele>1234</ele>
        <time>2011-06-19T13:34:56Z</time>
      </trkpt>
      <trkpt lat="45.12482" lon="5.41459">
        <ele>1227</ele>
        <time>2011-06-19T13:35:08Z</time>
      </trkpt>
      <trkpt lat="45.12472" lon="5.41435">
        <ele>1222</ele>
        <time>2011-06-19T13:35:11Z</time>
      </trkpt>
      <trkpt lat="45.12465" lon="5.41408">
        <ele>1221</ele>
        <time>2011-06-19T13:35:16Z</time>
      </trkpt>
      <trkpt lat="45.1246" lon="5.41403">
        <ele>1221</ele>
        <time>2011-06-19T13:35:18Z</time>
      </trkpt>
      <trkpt lat="45.12426" lon="5.41396">
        <ele>1208</ele>
        <time>2011-06-19T13:35:26Z</time>
      </trkpt>
      <trkpt lat="45.12408" lon="5.41397">
        <ele>1207</ele>
        <time>2011-06-19T13:35:32Z</time>
      </trkpt>
      <trkpt lat="45.12371" lon="5.41391">
        <ele>1201</ele>
        <time>2011-06-19T13:35:40Z</time>
      </trkpt>
      <trkpt lat="45.12363" lon="5.41364">
        <ele>1201</ele>
        <time>2011-06-19T13:35:44Z</time>
      </trkpt>
      <trkpt lat="45.12362" lon="5.41306">
        <ele>1199</ele>
        <time>2011-06-19T13:35:52Z</time>
      </trkpt>
      <trkpt lat="45.12384" lon="5.41269">
        <ele>1199</ele>
        <time>2011-06-19T13:36:01Z</time>
      </trkpt>
      <trkpt lat="45.12383" lon="5.41256">
        <ele>1198</ele>
        <time>2011-06-19T13:36:03Z</time>
      </trkpt>
      <trkpt lat="45.12377" lon="5.41234">
        <ele>1197</ele>
        <time>2011-06-19T13:36:07Z</time>
      </trkpt>
      <trkpt lat="45.1235" lon="5.41214">
        <ele>1196</ele>
        <time>2011-06-19T13:36:15Z</time>
      </trkpt>
      <trkpt lat="45.1227" lon="5.41218">
        <ele>1194</ele>
        <time>2011-06-19T13:36:46Z</time>
      </trkpt>
      <trkpt lat="45.12237" lon="5.41216">
        <ele>1193</ele>
        <time>2011-06-19T13:36:58Z</time>
      </trkpt>
      <trkpt lat="45.12112" lon="5.4124">
        <ele>1183</ele>
        <time>2011-06-19T13:37:31Z</time>
      </trkpt>
      <trkpt lat="45.11993" lon="5.41173">
        <ele>1160</ele>
        <time>2011-06-19T13:38:00Z</time>
      </trkpt>
      <trkpt lat="45.11953" lon="5.41108">
        <ele>1134</ele>
        <time>2011-06-19T13:38:17Z</time>
      </trkpt>
      <trkpt lat="45.11955" lon="5.41109">
        <ele>1131</ele>
        <time>2011-06-19T13:38:25Z</time>
      </trkpt>
      <trkpt lat="45.1196" lon="5.4111">
        <ele>1131</ele>
        <time>2011-06-19T13:38:32Z</time>
      </trkpt>
      <trkpt lat="45.11964" lon="5.41107">
        <ele>1130</ele>
        <time>2011-06-19T13:38:38Z</time>
      </trkpt>
      <trkpt lat="45.11966" lon="5.41101">
        <ele>1129</ele>
        <time>2011-06-19T13:38:48Z</time>
      </trkpt>
      <trkpt lat="45.11962" lon="5.41097">
        <ele>1129</ele>
        <time>2011-06-19T13:38:52Z</time>
      </trkpt>
      <trkpt lat="45.11962" lon="5.41096">
        <ele>1127</ele>
        <time>2011-06-19T13:39:10Z</time>
      </trkpt>
      <trkpt lat="45.11961" lon="5.41093">
        <ele>1126</ele>
        <time>2011-06-19T13:39:23Z</time>
      </trkpt>
      <trkpt lat="45.11951" lon="5.41095">
        <ele>1126</ele>
        <time>2011-06-19T13:39:29Z</time>
      </trkpt>
      <trkpt lat="45.11956" lon="5.41095">
        <ele>1125</ele>
        <time>2011-06-19T13:39:41Z</time>
      </trkpt>
      <trkpt lat="45.1196" lon="5.4109">
        <ele>1125</ele>
        <time>2011-06-19T13:39:46Z</time>
      </trkpt>
      <trkpt lat="45.11952" lon="5.41088">
        <ele>1123</ele>
        <time>2011-06-19T13:40:24Z</time>
      </trkpt>
      <trkpt lat="45.11954" lon="5.41095">
        <ele>1123</ele>
        <time>2011-06-19T13:40:27Z</time>
      </trkpt>
      <trkpt lat="45.11958" lon="5.41098">
        <ele>1123</ele>
        <time>2011-06-19T13:40:31Z</time>
      </trkpt>
      <trkpt lat="45.11954" lon="5.41108">
        <ele>1120</ele>
        <time>2011-06-19T13:40:42Z</time>
      </trkpt>
      <trkpt lat="45.11949" lon="5.4111">
        <ele>1119</ele>
        <time>2011-06-19T13:40:48Z</time>
      </trkpt>
      <trkpt lat="45.11946" lon="5.41104">
        <ele>1117</ele>
        <time>2011-06-19T13:40:54Z</time>
      </trkpt>
      <trkpt lat="45.11933" lon="5.41067">
        <ele>1114</ele>
        <time>2011-06-19T13:41:03Z</time>
      </trkpt>
      <trkpt lat="45.11924" lon="5.41057">
        <ele>1113</ele>
        <time>2011-06-19T13:41:06Z</time>
      </trkpt>
      <trkpt lat="45.11904" lon="5.41056">
        <ele>1112</ele>
        <time>2011-06-19T13:41:12Z</time>
      </trkpt>
      <trkpt lat="45.11837" lon="5.41012">
        <ele>1097</ele>
        <time>2011-06-19T13:41:28Z</time>
      </trkpt>
      <trkpt lat="45.11828" lon="5.41009">
        <ele>1097</ele>
        <time>2011-06-19T13:41:30Z</time>
      </trkpt>
      <trkpt lat="45.11721" lon="5.40904">
        <ele>1083</ele>
        <time>2011-06-19T13:42:03Z</time>
      </trkpt>
      <trkpt lat="45.11709" lon="5.409">
        <ele>1075</ele>
        <time>2011-06-19T13:42:07Z</time>
      </trkpt>
      <trkpt lat="45.11704" lon="5.40906">
        <ele>1070</ele>
        <time>2011-06-19T13:42:19Z</time>
      </trkpt>
      <trkpt lat="45.11705" lon="5.40902">
        <ele>1063</ele>
        <time>2011-06-19T13:42:40Z</time>
      </trkpt>
      <trkpt lat="45.11703" lon="5.40896">
        <ele>1063</ele>
        <time>2011-06-19T13:42:44Z</time>
      </trkpt>
      <trkpt lat="45.11698" lon="5.40901">
        <ele>1057</ele>
        <time>2011-06-19T13:43:15Z</time>
      </trkpt>
      <trkpt lat="45.11691" lon="5.40892">
        <ele>1048</ele>
        <time>2011-06-19T13:43:39Z</time>
      </trkpt>
      <trkpt lat="45.11666" lon="5.40825">
        <ele>1037</ele>
        <time>2011-06-19T13:43:45Z</time>
      </trkpt>
      <trkpt lat="45.11637" lon="5.40442">
        <ele>1028</ele>
        <time>2011-06-19T13:44:20Z</time>
      </trkpt>
    </trkseg>
  </trk>
</gpx>